<?xml version='1.0' encoding='UTF-8'?><gpx version="1.1" creator="JPX - https://github.com/jenetics/jpx" xmlns="http://www.topografix.com/GPX/1/1"><trk><trkseg><trkpt lat="44.41938718113112" lon="6.737440986316268"><ele>1219.0</ele><time>2026-03-23T15:13:28Z</time></trkpt><trkpt lat="44.419344397981504" lon="6.737508030197698"><ele>1219.0</ele><time>2026-03-23T15:13:38Z</time></trkpt><trkpt lat="44.419407959881205" lon="6.737532713282506"><ele>1219.0</ele><time>2026-03-23T15:13:43Z</time></trkpt><trkpt lat="44.419463622657446" lon="6.737577541033666"><ele>1219.0</ele><time>2026-03-23T15:13:48Z</time></trkpt><trkpt lat="44.41969899061077" lon="6.73780779663242"><ele>1219.0</ele><time>2026-03-23T15:13:51Z</time></trkpt><trkpt lat="44.41977484114005" lon="6.737884199516584"><ele>1219.0</ele><time>2026-03-23T15:13:53Z</time></trkpt><trkpt lat="44.41983736768666" lon="6.737966962799432"><ele>1219.0</ele><time>2026-03-23T15:13:55Z</time></trkpt><trkpt lat="44.41990177025322" lon="6.738051743697528"><ele>1219.0</ele><time>2026-03-23T15:13:57Z</time></trkpt><trkpt lat="44.41997988453986" lon="6.7381342580771175"><ele>1219.0</ele><time>2026-03-23T15:13:59Z</time></trkpt><trkpt lat="44.42002084134638" lon="6.738214223372237"><ele>1219.0</ele><time>2026-03-23T15:14:01Z</time></trkpt><trkpt lat="44.42006454499248" lon="6.738289165106692"><ele>1219.0</ele><time>2026-03-23T15:14:03Z</time></trkpt><trkpt lat="44.420118766255555" lon="6.7383822158398345"><ele>1219.0</ele><time>2026-03-23T15:14:06Z</time></trkpt><trkpt lat="44.42011914779363" lon="6.73853273970662"><ele>1219.0</ele><time>2026-03-23T15:14:09Z</time></trkpt><trkpt lat="44.42009287009415" lon="6.7386500882022995"><ele>1219.0</ele><time>2026-03-23T15:14:11Z</time></trkpt><trkpt lat="44.42008145149048" lon="6.738751081079905"><ele>1219.0</ele><time>2026-03-23T15:14:13Z</time></trkpt><trkpt lat="44.42005699844474" lon="6.738855178489639"><ele>1219.0</ele><time>2026-03-23T15:14:15Z</time></trkpt><trkpt lat="44.42004151841846" lon="6.738995881168583"><ele>1219.6000000000001</ele><time>2026-03-23T15:14:17Z</time></trkpt><trkpt lat="44.420012904569276" lon="6.739147326828645"><ele>1220.2</ele><time>2026-03-23T15:14:19Z</time></trkpt><trkpt lat="44.41997868114945" lon="6.7393040793050965"><ele>1220.8000000000002</ele><time>2026-03-23T15:14:21Z</time></trkpt><trkpt lat="44.41992937959375" lon="6.739442864955228"><ele>1221.4</ele><time>2026-03-23T15:14:23Z</time></trkpt><trkpt lat="44.419873849943855" lon="6.739559868265289"><ele>1222.0</ele><time>2026-03-23T15:14:25Z</time></trkpt><trkpt lat="44.4198114658368" lon="6.739657984992117"><ele>1222.0</ele><time>2026-03-23T15:14:27Z</time></trkpt><trkpt lat="44.41974808718036" lon="6.739752284754823"><ele>1222.0</ele><time>2026-03-23T15:14:29Z</time></trkpt><trkpt lat="44.41968386702161" lon="6.739825474043516"><ele>1222.0</ele><time>2026-03-23T15:14:31Z</time></trkpt><trkpt lat="44.41961118751781" lon="6.739902034793313"><ele>1222.0</ele><time>2026-03-23T15:14:33Z</time></trkpt><trkpt lat="44.41954499533067" lon="6.739972075472779"><ele>1222.0</ele><time>2026-03-23T15:14:35Z</time></trkpt><trkpt lat="44.41946567084126" lon="6.7400265571626345"><ele>1222.0</ele><time>2026-03-23T15:14:37Z</time></trkpt><trkpt lat="44.419385170634264" lon="6.740086055200995"><ele>1222.0</ele><time>2026-03-23T15:14:39Z</time></trkpt><trkpt lat="44.419301956079984" lon="6.74013950716076"><ele>1222.0</ele><time>2026-03-23T15:14:41Z</time></trkpt><trkpt lat="44.41923276164741" lon="6.740187385253024"><ele>1222.0</ele><time>2026-03-23T15:14:43Z</time></trkpt><trkpt lat="44.41917481454696" lon="6.740222606381742"><ele>1222.0</ele><time>2026-03-23T15:14:44Z</time></trkpt><trkpt lat="44.41909246728917" lon="6.740273488638947"><ele>1222.0</ele><time>2026-03-23T15:14:46Z</time></trkpt><trkpt lat="44.419003516107736" lon="6.74033217428149"><ele>1222.0</ele><time>2026-03-23T15:14:48Z</time></trkpt><trkpt lat="44.41891891593529" lon="6.740394222195913"><ele>1222.2</ele><time>2026-03-23T15:14:50Z</time></trkpt><trkpt lat="44.4188361662512" lon="6.740450173522989"><ele>1222.4</ele><time>2026-03-23T15:14:52Z</time></trkpt><trkpt lat="44.41875099457951" lon="6.7405075446983735"><ele>1222.6</ele><time>2026-03-23T15:14:54Z</time></trkpt><trkpt lat="44.418674156327356" lon="6.740577314392685"><ele>1222.8</ele><time>2026-03-23T15:14:56Z</time></trkpt><trkpt lat="44.418592339035285" lon="6.7406410348757255"><ele>1223.0</ele><time>2026-03-23T15:14:58Z</time></trkpt><trkpt lat="44.41851408056945" lon="6.740714146353487"><ele>1223.0</ele><time>2026-03-23T15:15:00Z</time></trkpt><trkpt lat="44.41843878711731" lon="6.740792690033689"><ele>1223.0</ele><time>2026-03-23T15:15:02Z</time></trkpt><trkpt lat="44.41836089201123" lon="6.740865763767539"><ele>1223.0</ele><time>2026-03-23T15:15:04Z</time></trkpt><trkpt lat="44.4182833810258" lon="6.740941593237019"><ele>1223.0</ele><time>2026-03-23T15:15:06Z</time></trkpt><trkpt lat="44.41820746010096" lon="6.741017781183285"><ele>1223.0</ele><time>2026-03-23T15:15:08Z</time></trkpt><trkpt lat="44.418123294747645" lon="6.741096495881065"><ele>1224.6666666666667</ele><time>2026-03-23T15:15:10Z</time></trkpt><trkpt lat="44.41804121784671" lon="6.741150294295796"><ele>1226.3333333333335</ele><time>2026-03-23T15:15:12Z</time></trkpt><trkpt lat="44.417965435978424" lon="6.741207131710811"><ele>1228.0</ele><time>2026-03-23T15:15:14Z</time></trkpt><trkpt lat="44.417889226620396" lon="6.741264671995664"><ele>1229.6666666666667</ele><time>2026-03-23T15:15:16Z</time></trkpt><trkpt lat="44.417812757917986" lon="6.741321475380279"><ele>1231.3333333333333</ele><time>2026-03-23T15:15:18Z</time></trkpt><trkpt lat="44.41773447222485" lon="6.741372154505512"><ele>1233.0</ele><time>2026-03-23T15:15:20Z</time></trkpt><trkpt lat="44.4176566120204" lon="6.741426533653545"><ele>1233.0</ele><time>2026-03-23T15:15:22Z</time></trkpt><trkpt lat="44.4175841803907" lon="6.741461433182915"><ele>1233.0</ele><time>2026-03-23T15:15:24Z</time></trkpt><trkpt lat="44.417503201494256" lon="6.741523905684671"><ele>1233.0</ele><time>2026-03-23T15:15:26Z</time></trkpt><trkpt lat="44.417428437535804" lon="6.741574331196592"><ele>1233.0</ele><time>2026-03-23T15:15:28Z</time></trkpt><trkpt lat="44.41735506258151" lon="6.741640560064986"><ele>1233.0</ele><time>2026-03-23T15:15:30Z</time></trkpt><trkpt lat="44.417282943519005" lon="6.741706627338818"><ele>1233.0</ele><time>2026-03-23T15:15:32Z</time></trkpt><trkpt lat="44.417219600345454" lon="6.741776865564854"><ele>1233.0</ele><time>2026-03-23T15:15:34Z</time></trkpt><trkpt lat="44.417159517797934" lon="6.741860279554188"><ele>1233.0</ele><time>2026-03-23T15:15:36Z</time></trkpt><trkpt lat="44.4171005587362" lon="6.741942042728472"><ele>1233.0</ele><time>2026-03-23T15:15:38Z</time></trkpt><trkpt lat="44.4170410299862" lon="6.742012358972765"><ele>1233.0</ele><time>2026-03-23T15:15:40Z</time></trkpt><trkpt lat="44.41698047393683" lon="6.742091251690604"><ele>1233.0</ele><time>2026-03-23T15:15:42Z</time></trkpt><trkpt lat="44.4169358554906" lon="6.742159401243274"><ele>1233.0</ele><time>2026-03-23T15:15:44Z</time></trkpt><trkpt lat="44.41688134350275" lon="6.742237334576973"><ele>1233.8333333333333</ele><time>2026-03-23T15:15:46Z</time></trkpt><trkpt lat="44.41690572638541" lon="6.7423500887044865"><ele>1234.6666666666667</ele><time>2026-03-23T15:15:48Z</time></trkpt><trkpt lat="44.41694066721583" lon="6.7424648243147"><ele>1235.5</ele><time>2026-03-23T15:15:50Z</time></trkpt><trkpt lat="44.416925693059206" lon="6.742570899755531"><ele>1236.3333333333335</ele><time>2026-03-23T15:15:52Z</time></trkpt><trkpt lat="44.41692515539838" lon="6.742661179387935"><ele>1237.1666666666667</ele><time>2026-03-23T15:15:54Z</time></trkpt><trkpt lat="44.41691866976885" lon="6.742767220474066"><ele>1238.0</ele><time>2026-03-23T15:15:56Z</time></trkpt><trkpt lat="44.41690843830525" lon="6.742868842460706"><ele>1238.5714285714284</ele><time>2026-03-23T15:15:58Z</time></trkpt><trkpt lat="44.41690362064107" lon="6.742964917427247"><ele>1239.142857142857</ele><time>2026-03-23T15:16:00Z</time></trkpt><trkpt lat="44.41687819203253" lon="6.743047892213924"><ele>1239.7142857142858</ele><time>2026-03-23T15:16:02Z</time></trkpt><trkpt lat="44.41686072608241" lon="6.7431504581365305"><ele>1240.2857142857142</ele><time>2026-03-23T15:16:04Z</time></trkpt><trkpt lat="44.41682856826836" lon="6.743227449617705"><ele>1240.857142857143</ele><time>2026-03-23T15:16:06Z</time></trkpt><trkpt lat="44.416795144684286" lon="6.743329646651587"><ele>1241.4285714285713</ele><time>2026-03-23T15:16:09Z</time></trkpt><trkpt lat="44.41675458298426" lon="6.743415475405291"><ele>1242.0</ele><time>2026-03-23T15:16:11Z</time></trkpt><trkpt lat="44.416759364492314" lon="6.743549938116333"><ele>1241.9999999999998</ele><time>2026-03-23T15:16:14Z</time></trkpt><trkpt lat="44.41681799996242" lon="6.743582535187829"><ele>1242.0</ele><time>2026-03-23T15:16:16Z</time></trkpt><trkpt lat="44.41688595133023" lon="6.743533458055503"><ele>1242.0</ele><time>2026-03-23T15:16:19Z</time></trkpt><trkpt lat="44.4169554899707" lon="6.7434770630560985"><ele>1242.0</ele><time>2026-03-23T15:16:22Z</time></trkpt><trkpt lat="44.417020236707536" lon="6.743406507528647"><ele>1242.0</ele><time>2026-03-23T15:16:25Z</time></trkpt><trkpt lat="44.41707202929732" lon="6.743325109448391"><ele>1241.9999999999998</ele><time>2026-03-23T15:16:28Z</time></trkpt><trkpt lat="44.417117610344526" lon="6.743258725977551"><ele>1242.0</ele><time>2026-03-23T15:16:30Z</time></trkpt><trkpt lat="44.4171693578403" lon="6.743162484846542"><ele>1242.0</ele><time>2026-03-23T15:16:33Z</time></trkpt><trkpt lat="44.41724974520565" lon="6.743100339717504"><ele>1242.0</ele><time>2026-03-23T15:16:36Z</time></trkpt><trkpt lat="44.41727103694941" lon="6.7432049089696715"><ele>1242.0</ele><time>2026-03-23T15:16:39Z</time></trkpt><trkpt lat="44.41720936858764" lon="6.743281857419626"><ele>1242.0</ele><time>2026-03-23T15:16:42Z</time></trkpt><trkpt lat="44.4171768101572" lon="6.7433716615481565"><ele>1242.0</ele><time>2026-03-23T15:16:45Z</time></trkpt><trkpt lat="44.41711867600345" lon="6.743467495318825"><ele>1242.0</ele><time>2026-03-23T15:16:48Z</time></trkpt><trkpt lat="44.41715618587275" lon="6.743569475290824"><ele>1245.0</ele><time>2026-03-23T15:16:51Z</time></trkpt><trkpt lat="44.41721726688595" lon="6.743529226139147"><ele>1248.0</ele><time>2026-03-23T15:16:53Z</time></trkpt><trkpt lat="44.4172599880941" lon="6.743422945969079"><ele>1251.0</ele><time>2026-03-23T15:16:56Z</time></trkpt><trkpt lat="44.417309218415795" lon="6.743355022161167"><ele>1254.0</ele><time>2026-03-23T15:16:59Z</time></trkpt><trkpt lat="44.41738301701423" lon="6.743281689606072"><ele>1257.0</ele><time>2026-03-23T15:17:02Z</time></trkpt><trkpt lat="44.41745086214831" lon="6.743202315640198"><ele>1260.0</ele><time>2026-03-23T15:17:05.001Z</time></trkpt><trkpt lat="44.41753174612368" lon="6.743148544119305"><ele>1260.0</ele><time>2026-03-23T15:17:08.001Z</time></trkpt><trkpt lat="44.417610841892134" lon="6.743124680606315"><ele>1260.0</ele><time>2026-03-23T15:17:11.001Z</time></trkpt><trkpt lat="44.41769617920843" lon="6.743091429243505"><ele>1260.0</ele><time>2026-03-23T15:17:14.001Z</time></trkpt><trkpt lat="44.417763176176585" lon="6.7430861002599825"><ele>1260.0</ele><time>2026-03-23T15:17:17.001Z</time></trkpt><trkpt lat="44.417818840163385" lon="6.743129232857854"><ele>1260.0</ele><time>2026-03-23T15:17:19.001Z</time></trkpt><trkpt lat="44.41783826786487" lon="6.743239144836066"><ele>1260.0</ele><time>2026-03-23T15:17:22.001Z</time></trkpt><trkpt lat="44.417789785062304" lon="6.743322657986261"><ele>1260.0</ele><time>2026-03-23T15:17:25.001Z</time></trkpt><trkpt lat="44.41772798889262" lon="6.743382853166858"><ele>1260.0</ele><time>2026-03-23T15:17:28.001Z</time></trkpt><trkpt lat="44.41774338501145" lon="6.743494178606885"><ele>1260.0</ele><time>2026-03-23T15:17:32.001Z</time></trkpt><trkpt lat="44.41781783582625" lon="6.743515376614075"><ele>1260.0</ele><time>2026-03-23T15:17:36.001Z</time></trkpt><trkpt lat="44.41788528250288" lon="6.74352886415938"><ele>1260.0</ele><time>2026-03-23T15:17:38.001Z</time></trkpt><trkpt lat="44.41794394184403" lon="6.743562884363377"><ele>1260.0</ele><time>2026-03-23T15:17:41.001Z</time></trkpt><trkpt lat="44.418008558571856" lon="6.743583972126962"><ele>1260.0</ele><time>2026-03-23T15:17:45.001Z</time></trkpt><trkpt lat="44.418075825055226" lon="6.743613338020932"><ele>1263.7142857142858</ele><time>2026-03-23T15:17:48.001Z</time></trkpt><trkpt lat="44.418137868565196" lon="6.743645830678597"><ele>1267.4285714285716</ele><time>2026-03-23T15:17:53.001Z</time></trkpt><trkpt lat="44.41819394077365" lon="6.743686281204391"><ele>1271.142857142857</ele><time>2026-03-23T15:17:57.001Z</time></trkpt><trkpt lat="44.4182581634193" lon="6.743693419137163"><ele>1274.857142857143</ele><time>2026-03-23T15:18:01.001Z</time></trkpt><trkpt lat="44.4183269028368" lon="6.743699028990783"><ele>1278.5714285714287</ele><time>2026-03-23T15:18:05.001Z</time></trkpt><trkpt lat="44.41839423171014" lon="6.743685008908683"><ele>1282.2857142857142</ele><time>2026-03-23T15:18:09.001Z</time></trkpt><trkpt lat="44.41846391636448" lon="6.743681741467688"><ele>1286.0</ele><time>2026-03-23T15:18:13.001Z</time></trkpt><trkpt lat="44.41853389021259" lon="6.743676951949398"><ele>1286.0</ele><time>2026-03-23T15:18:17.001Z</time></trkpt><trkpt lat="44.41860788276764" lon="6.7436595109726465"><ele>1286.0</ele><time>2026-03-23T15:18:21.001Z</time></trkpt><trkpt lat="44.41868256514944" lon="6.7436477734030404"><ele>1286.0</ele><time>2026-03-23T15:18:25.001Z</time></trkpt><trkpt lat="44.41875839102827" lon="6.743652804635262"><ele>1286.0</ele><time>2026-03-23T15:18:30.001Z</time></trkpt><trkpt lat="44.418827188207274" lon="6.743671648074342"><ele>1286.0</ele><time>2026-03-23T15:18:34.001Z</time></trkpt><trkpt lat="44.418896623463276" lon="6.74369271538575"><ele>1286.0</ele><time>2026-03-23T15:18:38.001Z</time></trkpt><trkpt lat="44.41897947267766" lon="6.743720276507355"><ele>1286.2857142857142</ele><time>2026-03-23T15:18:42.001Z</time></trkpt><trkpt lat="44.41904911636788" lon="6.743734777357305"><ele>1286.5714285714287</ele><time>2026-03-23T15:18:46.001Z</time></trkpt><trkpt lat="44.41911594792232" lon="6.743754679752211"><ele>1286.857142857143</ele><time>2026-03-23T15:18:49.001Z</time></trkpt><trkpt lat="44.41918719621397" lon="6.743781092232922"><ele>1287.142857142857</ele><time>2026-03-23T15:18:53.001Z</time></trkpt><trkpt lat="44.41926570894971" lon="6.743826296207385"><ele>1287.4285714285716</ele><time>2026-03-23T15:18:57.001Z</time></trkpt><trkpt lat="44.41932233291133" lon="6.743888372849029"><ele>1287.7142857142858</ele><time>2026-03-23T15:19:01.001Z</time></trkpt><trkpt lat="44.41938134171874" lon="6.743936215640468"><ele>1288.0</ele><time>2026-03-23T15:19:04.001Z</time></trkpt><trkpt lat="44.41941680525708" lon="6.744017682406859"><ele>1288.0</ele><time>2026-03-23T15:19:07.001Z</time></trkpt><trkpt lat="44.41948013271317" lon="6.74406809939459"><ele>1288.0</ele><time>2026-03-23T15:19:10.001Z</time></trkpt><trkpt lat="44.41956383728344" lon="6.744115666158964"><ele>1288.0</ele><time>2026-03-23T15:19:14.001Z</time></trkpt><trkpt lat="44.419628327589436" lon="6.744123947821684"><ele>1288.0</ele><time>2026-03-23T15:19:17.001Z</time></trkpt><trkpt lat="44.419692947770066" lon="6.744113346643998"><ele>1288.0</ele><time>2026-03-23T15:19:20.001Z</time></trkpt><trkpt lat="44.419777457709095" lon="6.744128809854603"><ele>1288.0</ele><time>2026-03-23T15:19:24.001Z</time></trkpt><trkpt lat="44.419846794838776" lon="6.744139515268307"><ele>1288.0</ele><time>2026-03-23T15:19:27.001Z</time></trkpt><trkpt lat="44.41992042748828" lon="6.744137126719605"><ele>1289.2857142857142</ele><time>2026-03-23T15:19:31.001Z</time></trkpt><trkpt lat="44.41998559480538" lon="6.7441248054469725"><ele>1290.5714285714284</ele><time>2026-03-23T15:19:34.001Z</time></trkpt><trkpt lat="44.42005671089406" lon="6.744115872079144"><ele>1291.857142857143</ele><time>2026-03-23T15:19:37.001Z</time></trkpt><trkpt lat="44.420130538597" lon="6.744127435735334"><ele>1293.142857142857</ele><time>2026-03-23T15:19:41.001Z</time></trkpt><trkpt lat="44.42019803848524" lon="6.744135639704529"><ele>1294.4285714285713</ele><time>2026-03-23T15:19:44.001Z</time></trkpt><trkpt lat="44.42027503399821" lon="6.744149428903905"><ele>1295.7142857142858</ele><time>2026-03-23T15:19:47.001Z</time></trkpt><trkpt lat="44.420350038671714" lon="6.744155491659345"><ele>1297.0</ele><time>2026-03-23T15:19:51.001Z</time></trkpt><trkpt lat="44.420416920680694" lon="6.744159555309119"><ele>1297.5714285714287</ele><time>2026-03-23T15:19:54.001Z</time></trkpt><trkpt lat="44.42048349767561" lon="6.744163508619826"><ele>1298.142857142857</ele><time>2026-03-23T15:19:57.001Z</time></trkpt><trkpt lat="44.420551698322534" lon="6.744172482739591"><ele>1298.7142857142858</ele><time>2026-03-23T15:20:00.001Z</time></trkpt><trkpt lat="44.42062404934538" lon="6.744172513719139"><ele>1299.2857142857142</ele><time>2026-03-23T15:20:03Z</time></trkpt><trkpt lat="44.42068848431696" lon="6.744174839730866"><ele>1299.857142857143</ele><time>2026-03-23T15:20:06Z</time></trkpt><trkpt lat="44.42075171173564" lon="6.744170944605534"><ele>1300.4285714285713</ele><time>2026-03-23T15:20:10Z</time></trkpt><trkpt lat="44.42082310295751" lon="6.744154452071622"><ele>1301.0</ele><time>2026-03-23T15:20:13Z</time></trkpt><trkpt lat="44.42088616343557" lon="6.744158974470535"><ele>1301.0</ele><time>2026-03-23T15:20:16Z</time></trkpt><trkpt lat="44.42095323126248" lon="6.744154303695172"><ele>1301.0</ele><time>2026-03-23T15:20:19Z</time></trkpt><trkpt lat="44.42102234615999" lon="6.744147208269185"><ele>1301.0</ele><time>2026-03-23T15:20:23Z</time></trkpt><trkpt lat="44.42108713327585" lon="6.744155991573322"><ele>1301.0</ele><time>2026-03-23T15:20:26Z</time></trkpt><trkpt lat="44.42115456180377" lon="6.744153540587965"><ele>1301.0</ele><time>2026-03-23T15:20:29Z</time></trkpt><trkpt lat="44.4212230330803" lon="6.74413981044813"><ele>1301.0</ele><time>2026-03-23T15:20:32Z</time></trkpt><trkpt lat="44.421295450045115" lon="6.744195256007434"><ele>1301.0</ele><time>2026-03-23T15:20:36Z</time></trkpt><trkpt lat="44.42124966702119" lon="6.744280468588373"><ele>1301.0</ele><time>2026-03-23T15:20:40Z</time></trkpt><trkpt lat="44.42118299959677" lon="6.744301371793937"><ele>1301.0</ele><time>2026-03-23T15:20:44Z</time></trkpt><trkpt lat="44.421120245680534" lon="6.744320206986098"><ele>1301.0</ele><time>2026-03-23T15:20:47Z</time></trkpt><trkpt lat="44.42105146630728" lon="6.74434794516237"><ele>1301.0</ele><time>2026-03-23T15:20:51Z</time></trkpt><trkpt lat="44.4209865393455" lon="6.744368817187002"><ele>1301.0</ele><time>2026-03-23T15:20:54Z</time></trkpt><trkpt lat="44.42091259518502" lon="6.744404747232566"><ele>1301.0</ele><time>2026-03-23T15:20:58Z</time></trkpt><trkpt lat="44.42083293882291" lon="6.744428386536511"><ele>1301.0</ele><time>2026-03-23T15:21:01Z</time></trkpt><trkpt lat="44.42076144700584" lon="6.744452226044933"><ele>1304.8333333333335</ele><time>2026-03-23T15:21:05Z</time></trkpt><trkpt lat="44.420677383656745" lon="6.7444755568246935"><ele>1308.6666666666667</ele><time>2026-03-23T15:21:09Z</time></trkpt><trkpt lat="44.42061148569587" lon="6.744490114368659"><ele>1312.5</ele><time>2026-03-23T15:21:12Z</time></trkpt><trkpt lat="44.42051358165479" lon="6.74451699904419"><ele>1316.3333333333333</ele><time>2026-03-23T15:21:16Z</time></trkpt><trkpt lat="44.42047201908524" lon="6.74459661855161"><ele>1320.1666666666665</ele><time>2026-03-23T15:21:20Z</time></trkpt><trkpt lat="44.42053624784606" lon="6.744607443316115"><ele>1324.0</ele><time>2026-03-23T15:21:23Z</time></trkpt><trkpt lat="44.42060062580396" lon="6.744579081452396"><ele>1326.5</ele><time>2026-03-23T15:21:26Z</time></trkpt><trkpt lat="44.42068089790116" lon="6.744571252686433"><ele>1329.0</ele><time>2026-03-23T15:21:30Z</time></trkpt><trkpt lat="44.42075824461158" lon="6.744588131224034"><ele>1331.5</ele><time>2026-03-23T15:21:33Z</time></trkpt><trkpt lat="44.42083660788236" lon="6.744596344053177"><ele>1334.0</ele><time>2026-03-23T15:21:37Z</time></trkpt><trkpt lat="44.42091354128711" lon="6.744592104359521"><ele>1336.5</ele><time>2026-03-23T15:21:40Z</time></trkpt><trkpt lat="44.42098947908812" lon="6.744587442292958"><ele>1339.0</ele><time>2026-03-23T15:21:44Z</time></trkpt><trkpt lat="44.421060179264195" lon="6.744576876879031"><ele>1339.0</ele><time>2026-03-23T15:21:47Z</time></trkpt><trkpt lat="44.42114536136578" lon="6.7445682688689494"><ele>1339.0</ele><time>2026-03-23T15:21:50Z</time></trkpt><trkpt lat="44.421213220987184" lon="6.744566675710356"><ele>1339.0</ele><time>2026-03-23T15:21:53Z</time></trkpt><trkpt lat="44.42130034047695" lon="6.744544120902575"><ele>1339.0</ele><time>2026-03-23T15:21:57Z</time></trkpt><trkpt lat="44.421366618157805" lon="6.744533393498685"><ele>1339.0</ele><time>2026-03-23T15:22:00Z</time></trkpt><trkpt lat="44.42143919189705" lon="6.744504022888279"><ele>1339.0</ele><time>2026-03-23T15:22:03Z</time></trkpt><trkpt lat="44.421515232864586" lon="6.744496972494404"><ele>1340.5</ele><time>2026-03-23T15:22:06Z</time></trkpt><trkpt lat="44.4215898661294" lon="6.744479669344591"><ele>1342.0</ele><time>2026-03-23T15:22:10Z</time></trkpt><trkpt lat="44.421657883595444" lon="6.744475104456785"><ele>1343.5</ele><time>2026-03-23T15:22:13Z</time></trkpt><trkpt lat="44.42174416470358" lon="6.744440723612927"><ele>1345.0</ele><time>2026-03-23T15:22:17Z</time></trkpt><trkpt lat="44.42183762026935" lon="6.744407520691736"><ele>1346.5</ele><time>2026-03-23T15:22:20Z</time></trkpt><trkpt lat="44.42193798942516" lon="6.744378359433297"><ele>1348.0</ele><time>2026-03-23T15:22:24Z</time></trkpt><trkpt lat="44.422009758328684" lon="6.744343197827652"><ele>1345.4285714285716</ele><time>2026-03-23T15:22:27Z</time></trkpt><trkpt lat="44.42208205388355" lon="6.744296322973656"><ele>1342.857142857143</ele><time>2026-03-23T15:22:30Z</time></trkpt><trkpt lat="44.42215021823598" lon="6.744250393155171"><ele>1340.2857142857142</ele><time>2026-03-23T15:22:33Z</time></trkpt><trkpt lat="44.42220879504159" lon="6.74419697165196"><ele>1337.7142857142858</ele><time>2026-03-23T15:22:36Z</time></trkpt><trkpt lat="44.42226455725414" lon="6.744133258413611"><ele>1335.142857142857</ele><time>2026-03-23T15:22:39Z</time></trkpt><trkpt lat="44.422331569352366" lon="6.744083285175825"><ele>1332.5714285714287</ele><time>2026-03-23T15:22:42Z</time></trkpt><trkpt lat="44.4224006339999" lon="6.744070412487359"><ele>1330.0</ele><time>2026-03-23T15:22:45Z</time></trkpt><trkpt lat="44.42247166558497" lon="6.744048725290433"><ele>1330.0</ele><time>2026-03-23T15:22:48Z</time></trkpt><trkpt lat="44.42253460086569" lon="6.744020112350548"><ele>1330.0</ele><time>2026-03-23T15:22:51Z</time></trkpt><trkpt lat="44.42259988362007" lon="6.7440110461553315"><ele>1330.0</ele><time>2026-03-23T15:22:54Z</time></trkpt><trkpt lat="44.42261625883733" lon="6.744097118638572"><ele>1330.0</ele><time>2026-03-23T15:22:58Z</time></trkpt><trkpt lat="44.42255040267723" lon="6.744129047017842"><ele>1330.0</ele><time>2026-03-23T15:23:01Z</time></trkpt><trkpt lat="44.42249437049523" lon="6.744170989475973"><ele>1330.0</ele><time>2026-03-23T15:23:04Z</time></trkpt><trkpt lat="44.422439779846755" lon="6.744229151899406"><ele>1330.0</ele><time>2026-03-23T15:23:07Z</time></trkpt><trkpt lat="44.42238360932705" lon="6.744305231885875"><ele>1330.0</ele><time>2026-03-23T15:23:11Z</time></trkpt><trkpt lat="44.42233343758538" lon="6.744359918500955"><ele>1330.0</ele><time>2026-03-23T15:23:14Z</time></trkpt><trkpt lat="44.422283461853546" lon="6.744425137818043"><ele>1330.0</ele><time>2026-03-23T15:23:17Z</time></trkpt><trkpt lat="44.422213346887034" lon="6.7445252820608355"><ele>1330.0</ele><time>2026-03-23T15:23:21Z</time></trkpt><trkpt lat="44.42216663870296" lon="6.744600202139288"><ele>1330.0</ele><time>2026-03-23T15:23:25Z</time></trkpt><trkpt lat="44.42210851708472" lon="6.744665551675079"><ele>1330.0</ele><time>2026-03-23T15:23:28Z</time></trkpt><trkpt lat="44.42205360149831" lon="6.744729237304741"><ele>1330.0</ele><time>2026-03-23T15:23:32Z</time></trkpt><trkpt lat="44.4219854199719" lon="6.744793708328871"><ele>1332.5714285714287</ele><time>2026-03-23T15:23:36Z</time></trkpt><trkpt lat="44.421927860409625" lon="6.744845945433628"><ele>1335.142857142857</ele><time>2026-03-23T15:23:39Z</time></trkpt><trkpt lat="44.42186504237895" lon="6.74488775034918"><ele>1337.7142857142858</ele><time>2026-03-23T15:23:42Z</time></trkpt><trkpt lat="44.42180031545819" lon="6.744918635355297"><ele>1340.2857142857142</ele><time>2026-03-23T15:23:45Z</time></trkpt><trkpt lat="44.421736534258514" lon="6.744941153462862"><ele>1342.857142857143</ele><time>2026-03-23T15:23:48Z</time></trkpt><trkpt lat="44.42166577156345" lon="6.74495566004519"><ele>1345.4285714285716</ele><time>2026-03-23T15:23:51Z</time></trkpt><trkpt lat="44.421588972131254" lon="6.74497750370653"><ele>1348.0</ele><time>2026-03-23T15:23:55Z</time></trkpt><trkpt lat="44.42152187119476" lon="6.744985664431132"><ele>1348.0000000000002</ele><time>2026-03-23T15:23:58Z</time></trkpt><trkpt lat="44.421449691917175" lon="6.745005083989328"><ele>1348.0</ele><time>2026-03-23T15:24:02Z</time></trkpt><trkpt lat="44.421384742151346" lon="6.745032121721649"><ele>1348.0</ele><time>2026-03-23T15:24:05Z</time></trkpt><trkpt lat="44.42132152239193" lon="6.745060254272094"><ele>1348.0</ele><time>2026-03-23T15:24:08Z</time></trkpt><trkpt lat="44.42126404209388" lon="6.745107569661483"><ele>1348.0</ele><time>2026-03-23T15:24:11Z</time></trkpt><trkpt lat="44.42120821397713" lon="6.7451503888161355"><ele>1348.0000000000002</ele><time>2026-03-23T15:24:14Z</time></trkpt><trkpt lat="44.42113474548914" lon="6.745188670339501"><ele>1348.0</ele><time>2026-03-23T15:24:18Z</time></trkpt><trkpt lat="44.42120313602051" lon="6.745170290066129"><ele>1348.0</ele><time>2026-03-23T15:24:26Z</time></trkpt><trkpt lat="44.42125798493513" lon="6.7451176474137915"><ele>1348.0</ele><time>2026-03-23T15:24:30Z</time></trkpt><trkpt lat="44.421331518206294" lon="6.745054178972161"><ele>1348.0</ele><time>2026-03-23T15:24:32Z</time></trkpt><trkpt lat="44.42139777943959" lon="6.745021797349473"><ele>1348.0</ele><time>2026-03-23T15:24:33Z</time></trkpt><trkpt lat="44.421468920586186" lon="6.745005579183046"><ele>1348.0</ele><time>2026-03-23T15:24:34Z</time></trkpt><trkpt lat="44.42153884373533" lon="6.7449995187357645"><ele>1348.0</ele><time>2026-03-23T15:24:35Z</time></trkpt><trkpt lat="44.42167161198925" lon="6.744972227989326"><ele>1348.0</ele><time>2026-03-23T15:24:37Z</time></trkpt><trkpt lat="44.42174556138865" lon="6.744950323388806"><ele>1348.0</ele><time>2026-03-23T15:24:38Z</time></trkpt><trkpt lat="44.42187409092047" lon="6.744890163359893"><ele>1348.0</ele><time>2026-03-23T15:24:40Z</time></trkpt><trkpt lat="44.42193440799464" lon="6.744839305078549"><ele>1348.0</ele><time>2026-03-23T15:24:41Z</time></trkpt><trkpt lat="44.42199601613986" lon="6.744774184724894"><ele>1348.0</ele><time>2026-03-23T15:24:42Z</time></trkpt><trkpt lat="44.42205815016668" lon="6.744687985076288"><ele>1348.0</ele><time>2026-03-23T15:24:43Z</time></trkpt><trkpt lat="44.42212833781225" lon="6.744604479129055"><ele>1345.4285714285716</ele><time>2026-03-23T15:24:44Z</time></trkpt><trkpt lat="44.422188958005336" lon="6.744533020821952"><ele>1342.857142857143</ele><time>2026-03-23T15:24:45Z</time></trkpt><trkpt lat="44.42223965718967" lon="6.744472501643372"><ele>1340.2857142857142</ele><time>2026-03-23T15:24:46Z</time></trkpt><trkpt lat="44.42229274831034" lon="6.74439786706756"><ele>1337.7142857142858</ele><time>2026-03-23T15:24:47Z</time></trkpt><trkpt lat="44.42234229091955" lon="6.744328622792058"><ele>1335.142857142857</ele><time>2026-03-23T15:24:48Z</time></trkpt><trkpt lat="44.42239988522046" lon="6.744266430215038"><ele>1332.5714285714287</ele><time>2026-03-23T15:24:49Z</time></trkpt><trkpt lat="44.42245469831361" lon="6.74420482601953"><ele>1330.0</ele><time>2026-03-23T15:24:50Z</time></trkpt><trkpt lat="44.42255613129146" lon="6.744129256949218"><ele>1330.0</ele><time>2026-03-23T15:24:52Z</time></trkpt><trkpt lat="44.42262260717779" lon="6.744088549261298"><ele>1330.0</ele><time>2026-03-23T15:24:55Z</time></trkpt><trkpt lat="44.42258075836014" lon="6.744002193625548"><ele>1330.0</ele><time>2026-03-23T15:24:59Z</time></trkpt><trkpt lat="44.42250636737343" lon="6.744049998913702"><ele>1330.0</ele><time>2026-03-23T15:25:01Z</time></trkpt><trkpt lat="44.42242293541037" lon="6.744092114874559"><ele>1330.0</ele><time>2026-03-23T15:25:03Z</time></trkpt><trkpt lat="44.42233930181262" lon="6.744113531748312"><ele>1330.0</ele><time>2026-03-23T15:25:05Z</time></trkpt><trkpt lat="44.42226975059088" lon="6.74416032276707"><ele>1330.0</ele><time>2026-03-23T15:25:07Z</time></trkpt><trkpt lat="44.42218849770458" lon="6.744255620385972"><ele>1330.0</ele><time>2026-03-23T15:25:09Z</time></trkpt><trkpt lat="44.42212895263581" lon="6.744305882822722"><ele>1330.0</ele><time>2026-03-23T15:25:10Z</time></trkpt><trkpt lat="44.42206413046244" lon="6.744346827469172"><ele>1330.0</ele><time>2026-03-23T15:25:11Z</time></trkpt><trkpt lat="44.422000228768326" lon="6.744379676684047"><ele>1330.0</ele><time>2026-03-23T15:25:12Z</time></trkpt><trkpt lat="44.42188094236412" lon="6.744428111886118"><ele>1330.0</ele><time>2026-03-23T15:25:14Z</time></trkpt><trkpt lat="44.42176383536962" lon="6.744463027441964"><ele>1331.8</ele><time>2026-03-23T15:25:16Z</time></trkpt><trkpt lat="44.42164801375842" lon="6.744495587113136"><ele>1333.6</ele><time>2026-03-23T15:25:18Z</time></trkpt><trkpt lat="44.42153502073248" lon="6.744512928745512"><ele>1335.4</ele><time>2026-03-23T15:25:20Z</time></trkpt><trkpt lat="44.42141205545077" lon="6.744536297221608"><ele>1337.2</ele><time>2026-03-23T15:25:22Z</time></trkpt><trkpt lat="44.42134431107099" lon="6.744551518603367"><ele>1339.0</ele><time>2026-03-23T15:25:23Z</time></trkpt><trkpt lat="44.42128261661925" lon="6.744571833105137"><ele>1339.0</ele><time>2026-03-23T15:25:24Z</time></trkpt><trkpt lat="44.42122058469863" lon="6.744594030239218"><ele>1339.0</ele><time>2026-03-23T15:25:25Z</time></trkpt><trkpt lat="44.42114753646222" lon="6.74459973331024"><ele>1339.0</ele><time>2026-03-23T15:25:26Z</time></trkpt><trkpt lat="44.421070040762935" lon="6.744605072410751"><ele>1339.0</ele><time>2026-03-23T15:25:27Z</time></trkpt><trkpt lat="44.42098705792343" lon="6.744610271824508"><ele>1339.0</ele><time>2026-03-23T15:25:28Z</time></trkpt><trkpt lat="44.42091358132138" lon="6.744625318130596"><ele>1339.0</ele><time>2026-03-23T15:25:29Z</time></trkpt><trkpt lat="44.42084040515567" lon="6.7446246401894125"><ele>1339.0</ele><time>2026-03-23T15:25:30Z</time></trkpt><trkpt lat="44.420774411907395" lon="6.7446271791806165"><ele>1339.0</ele><time>2026-03-23T15:25:31Z</time></trkpt><trkpt lat="44.420655793589845" lon="6.744607221201176"><ele>1339.0</ele><time>2026-03-23T15:25:33Z</time></trkpt><trkpt lat="44.420549610485715" lon="6.744617368121485"><ele>1339.0</ele><time>2026-03-23T15:25:35Z</time></trkpt><trkpt lat="44.42046149404558" lon="6.744648782485542"><ele>1339.0</ele><time>2026-03-23T15:25:38Z</time></trkpt><trkpt lat="44.420397573023614" lon="6.74462809209587"><ele>1339.0</ele><time>2026-03-23T15:25:40Z</time></trkpt><trkpt lat="44.42031078927474" lon="6.744623658529185"><ele>1336.5</ele><time>2026-03-23T15:25:43Z</time></trkpt><trkpt lat="44.42021066959604" lon="6.744649983858016"><ele>1334.0</ele><time>2026-03-23T15:25:47Z</time></trkpt><trkpt lat="44.42012645941908" lon="6.7446943375245265"><ele>1331.5</ele><time>2026-03-23T15:25:50Z</time></trkpt><trkpt lat="44.420053470913786" lon="6.744727458047985"><ele>1329.0</ele><time>2026-03-23T15:25:53Z</time></trkpt><trkpt lat="44.41998458344599" lon="6.744762115231075"><ele>1326.5</ele><time>2026-03-23T15:25:57Z</time></trkpt><trkpt lat="44.41991199800321" lon="6.744789988533232"><ele>1324.0</ele><time>2026-03-23T15:26:01Z</time></trkpt><trkpt lat="44.41985132449432" lon="6.744825319432535"><ele>1324.0</ele><time>2026-03-23T15:26:13Z</time></trkpt><trkpt lat="44.419784149024075" lon="6.744870875785992"><ele>1324.0</ele><time>2026-03-23T15:26:23Z</time></trkpt><trkpt lat="44.41985416472482" lon="6.744818156694979"><ele>1324.0</ele><time>2026-03-23T15:27:06Z</time></trkpt><trkpt lat="44.41992577175035" lon="6.744768790485981"><ele>1324.0</ele><time>2026-03-23T15:27:19Z</time></trkpt><trkpt lat="44.419993149865945" lon="6.744743447065143"><ele>1324.0</ele><time>2026-03-23T15:27:21Z</time></trkpt><trkpt lat="44.420064657684435" lon="6.744703451813255"><ele>1324.0</ele><time>2026-03-23T15:27:24Z</time></trkpt><trkpt lat="44.42013412636056" lon="6.744665858079362"><ele>1324.0</ele><time>2026-03-23T15:27:27Z</time></trkpt><trkpt lat="44.420209932313526" lon="6.7446245036875725"><ele>1324.0</ele><time>2026-03-23T15:27:30Z</time></trkpt><trkpt lat="44.42038616420911" lon="6.744596501829565"><ele>1324.0</ele><time>2026-03-23T15:27:37Z</time></trkpt><trkpt lat="44.420447936180715" lon="6.744537275090927"><ele>1324.0</ele><time>2026-03-23T15:27:41Z</time></trkpt><trkpt lat="44.420523368278815" lon="6.744485194084278"><ele>1324.0</ele><time>2026-03-23T15:27:43Z</time></trkpt><trkpt lat="44.420616902208266" lon="6.744471471295777"><ele>1326.5</ele><time>2026-03-23T15:27:45Z</time></trkpt><trkpt lat="44.42072668813866" lon="6.744446470768094"><ele>1329.0</ele><time>2026-03-23T15:27:47Z</time></trkpt><trkpt lat="44.42079050963591" lon="6.744429906261061"><ele>1331.5</ele><time>2026-03-23T15:27:48Z</time></trkpt><trkpt lat="44.42091145499029" lon="6.744389683867393"><ele>1334.0</ele><time>2026-03-23T15:27:50Z</time></trkpt><trkpt lat="44.42097217332369" lon="6.744364128778493"><ele>1336.5</ele><time>2026-03-23T15:27:51Z</time></trkpt><trkpt lat="44.42103752046504" lon="6.744337818839243"><ele>1339.0</ele><time>2026-03-23T15:27:52Z</time></trkpt><trkpt lat="44.421099317605574" lon="6.744314903171084"><ele>1334.8333333333333</ele><time>2026-03-23T15:27:53Z</time></trkpt><trkpt lat="44.421212926581646" lon="6.744285393457007"><ele>1330.6666666666665</ele><time>2026-03-23T15:27:55Z</time></trkpt><trkpt lat="44.42128676209875" lon="6.74427347303292"><ele>1326.5</ele><time>2026-03-23T15:27:57Z</time></trkpt><trkpt lat="44.42133488634349" lon="6.744206266399806"><ele>1322.3333333333333</ele><time>2026-03-23T15:28:00Z</time></trkpt><trkpt lat="44.42125587160832" lon="6.74416320286766"><ele>1318.1666666666667</ele><time>2026-03-23T15:28:02Z</time></trkpt><trkpt lat="44.42117969917054" lon="6.744168730896473"><ele>1314.0</ele><time>2026-03-23T15:28:04Z</time></trkpt><trkpt lat="44.42107257910135" lon="6.7441890949787044"><ele>1311.8333333333333</ele><time>2026-03-23T15:28:06.001Z</time></trkpt><trkpt lat="44.42095416764332" lon="6.744192237302374"><ele>1309.6666666666667</ele><time>2026-03-23T15:28:08.001Z</time></trkpt><trkpt lat="44.420889665192384" lon="6.744192736077111"><ele>1307.5</ele><time>2026-03-23T15:28:09.001Z</time></trkpt><trkpt lat="44.42082137008062" lon="6.744192666964361"><ele>1305.3333333333335</ele><time>2026-03-23T15:28:10.001Z</time></trkpt><trkpt lat="44.42075180028383" lon="6.74419726144244"><ele>1303.1666666666667</ele><time>2026-03-23T15:28:11.001Z</time></trkpt><trkpt lat="44.42068040125711" lon="6.74420156593413"><ele>1301.0</ele><time>2026-03-23T15:28:12.001Z</time></trkpt><trkpt lat="44.42061337071139" lon="6.744202568295528"><ele>1301.0</ele><time>2026-03-23T15:28:13.001Z</time></trkpt><trkpt lat="44.420543302885434" lon="6.744201614151093"><ele>1301.0</ele><time>2026-03-23T15:28:14.001Z</time></trkpt><trkpt lat="44.42047159252632" lon="6.744192498812859"><ele>1301.0</ele><time>2026-03-23T15:28:15Z</time></trkpt><trkpt lat="44.42040682697608" lon="6.744187638419506"><ele>1301.0</ele><time>2026-03-23T15:28:16Z</time></trkpt><trkpt lat="44.420334688575565" lon="6.744176878095132"><ele>1301.0</ele><time>2026-03-23T15:28:17Z</time></trkpt><trkpt lat="44.42026125295481" lon="6.744170424933131"><ele>1301.0</ele><time>2026-03-23T15:28:18Z</time></trkpt><trkpt lat="44.4201861369203" lon="6.74415711343888"><ele>1301.0</ele><time>2026-03-23T15:28:19Z</time></trkpt><trkpt lat="44.42011922583248" lon="6.7441476606927635"><ele>1300.3333333333335</ele><time>2026-03-23T15:28:20Z</time></trkpt><trkpt lat="44.42001135508603" lon="6.744145012632699"><ele>1299.6666666666667</ele><time>2026-03-23T15:28:22Z</time></trkpt><trkpt lat="44.419895561286296" lon="6.744173789841038"><ele>1299.0</ele><time>2026-03-23T15:28:24Z</time></trkpt><trkpt lat="44.419825147937765" lon="6.744179767223454"><ele>1298.3333333333333</ele><time>2026-03-23T15:28:25Z</time></trkpt><trkpt lat="44.41975678248618" lon="6.744166970352799"><ele>1297.6666666666665</ele><time>2026-03-23T15:28:26Z</time></trkpt><trkpt lat="44.41968864621356" lon="6.7441544494624415"><ele>1297.0</ele><time>2026-03-23T15:28:27Z</time></trkpt><trkpt lat="44.41961304723291" lon="6.744144784384569"><ele>1295.1999999999998</ele><time>2026-03-23T15:28:28Z</time></trkpt><trkpt lat="44.41948042733792" lon="6.744100429130009"><ele>1293.4</ele><time>2026-03-23T15:28:30Z</time></trkpt><trkpt lat="44.419419996883086" lon="6.744047729244381"><ele>1291.6</ele><time>2026-03-23T15:28:31Z</time></trkpt><trkpt lat="44.41937240437303" lon="6.743981756039247"><ele>1289.8000000000002</ele><time>2026-03-23T15:28:32Z</time></trkpt><trkpt lat="44.41929637012947" lon="6.743861657779373"><ele>1288.0</ele><time>2026-03-23T15:28:34Z</time></trkpt><trkpt lat="44.41920155584099" lon="6.74379190987491"><ele>1288.0</ele><time>2026-03-23T15:28:36Z</time></trkpt><trkpt lat="44.41909054702222" lon="6.74375720679739"><ele>1288.0</ele><time>2026-03-23T15:28:38Z</time></trkpt><trkpt lat="44.41898300554316" lon="6.743726304568731"><ele>1288.0</ele><time>2026-03-23T15:28:40Z</time></trkpt><trkpt lat="44.41890881491681" lon="6.743695030107317"><ele>1288.0</ele><time>2026-03-23T15:28:42Z</time></trkpt><trkpt lat="44.41884032735625" lon="6.743688135005424"><ele>1288.0</ele><time>2026-03-23T15:28:55.001Z</time></trkpt><trkpt lat="44.418757764972455" lon="6.743652722474341"><ele>1287.6666666666665</ele><time>2026-03-23T15:28:59.001Z</time></trkpt><trkpt lat="44.41869435500221" lon="6.743638556285163"><ele>1287.3333333333333</ele><time>2026-03-23T15:29:02.001Z</time></trkpt><trkpt lat="44.41869100451081" lon="6.743537281862749"><ele>1287.0</ele><time>2026-03-23T15:29:06.001Z</time></trkpt><trkpt lat="44.41874881872503" lon="6.743469550096047"><ele>1286.6666666666667</ele><time>2026-03-23T15:29:08.001Z</time></trkpt><trkpt lat="44.41883690717115" lon="6.743437652798178"><ele>1286.3333333333335</ele><time>2026-03-23T15:29:10.001Z</time></trkpt><trkpt lat="44.41894551981539" lon="6.743400883292205"><ele>1286.0</ele><time>2026-03-23T15:29:12.001Z</time></trkpt><trkpt lat="44.419060978337264" lon="6.743367370058152"><ele>1283.8</ele><time>2026-03-23T15:29:14.001Z</time></trkpt><trkpt lat="44.41915616287814" lon="6.74336728764707"><ele>1281.6</ele><time>2026-03-23T15:29:16.001Z</time></trkpt><trkpt lat="44.41926005938096" lon="6.743400716468107"><ele>1279.4</ele><time>2026-03-23T15:29:18.001Z</time></trkpt><trkpt lat="44.41936673750282" lon="6.74343759301392"><ele>1277.2</ele><time>2026-03-23T15:29:20.001Z</time></trkpt><trkpt lat="44.41946826942236" lon="6.743453345513866"><ele>1275.0</ele><time>2026-03-23T15:29:22.001Z</time></trkpt><trkpt lat="44.419577966711834" lon="6.743472575557564"><ele>1274.0</ele><time>2026-03-23T15:29:24.001Z</time></trkpt><trkpt lat="44.419699791305725" lon="6.743490472315515"><ele>1273.0</ele><time>2026-03-23T15:29:26.001Z</time></trkpt><trkpt lat="44.41976552296671" lon="6.743498368031736"><ele>1272.0</ele><time>2026-03-23T15:29:27.001Z</time></trkpt><trkpt lat="44.41982943596547" lon="6.743506061126277"><ele>1271.0</ele><time>2026-03-23T15:29:28.001Z</time></trkpt><trkpt lat="44.41989848246699" lon="6.743508377946467"><ele>1270.0</ele><time>2026-03-23T15:29:29.001Z</time></trkpt><trkpt lat="44.42000697260343" lon="6.743497685165021"><ele>1269.0</ele><time>2026-03-23T15:29:31.001Z</time></trkpt><trkpt lat="44.42009106244943" lon="6.7434475079171"><ele>1269.0</ele><time>2026-03-23T15:29:33.001Z</time></trkpt><trkpt lat="44.4201205202187" lon="6.743343899923266"><ele>1269.0</ele><time>2026-03-23T15:29:35.001Z</time></trkpt><trkpt lat="44.42007859475452" lon="6.743213931217641"><ele>1269.0</ele><time>2026-03-23T15:29:37.001Z</time></trkpt><trkpt lat="44.420002335490295" lon="6.743131720341217"><ele>1269.0</ele><time>2026-03-23T15:29:39.001Z</time></trkpt><trkpt lat="44.41995519372535" lon="6.743049795583819"><ele>1269.0</ele><time>2026-03-23T15:29:41.001Z</time></trkpt><trkpt lat="44.419959741025366" lon="6.742942115324713"><ele>1269.0</ele><time>2026-03-23T15:29:43.001Z</time></trkpt><trkpt lat="44.42004390968626" lon="6.742905955121149"><ele>1269.0</ele><time>2026-03-23T15:29:45.001Z</time></trkpt><trkpt lat="44.42014680316207" lon="6.742966316199302"><ele>1269.0</ele><time>2026-03-23T15:29:47.001Z</time></trkpt><trkpt lat="44.42025132545931" lon="6.743008944718655"><ele>1269.0</ele><time>2026-03-23T15:29:49.001Z</time></trkpt><trkpt lat="44.420315197416976" lon="6.742976831987777"><ele>1269.0</ele><time>2026-03-23T15:29:50.001Z</time></trkpt><trkpt lat="44.420380965741565" lon="6.742941472746404"><ele>1269.0</ele><time>2026-03-23T15:29:51.001Z</time></trkpt><trkpt lat="44.420443399075744" lon="6.742916393236682"><ele>1269.0</ele><time>2026-03-23T15:29:52.001Z</time></trkpt><trkpt lat="44.42051113818973" lon="6.742898166525749"><ele>1269.7142857142858</ele><time>2026-03-23T15:29:53.001Z</time></trkpt><trkpt lat="44.420578079657666" lon="6.742889572107082"><ele>1270.4285714285713</ele><time>2026-03-23T15:29:54.001Z</time></trkpt><trkpt lat="44.42064420176091" lon="6.742889346704513"><ele>1271.142857142857</ele><time>2026-03-23T15:29:55.001Z</time></trkpt><trkpt lat="44.420712091579816" lon="6.742901382781948"><ele>1271.857142857143</ele><time>2026-03-23T15:29:56.001Z</time></trkpt><trkpt lat="44.420784701594776" lon="6.7429018094872655"><ele>1272.5714285714284</ele><time>2026-03-23T15:29:57.001Z</time></trkpt><trkpt lat="44.42085687929312" lon="6.742898314568282"><ele>1273.2857142857142</ele><time>2026-03-23T15:29:58.001Z</time></trkpt><trkpt lat="44.42091988576457" lon="6.742896308087097"><ele>1274.0</ele><time>2026-03-23T15:29:59.001Z</time></trkpt><trkpt lat="44.42101487651981" lon="6.74288318137296"><ele>1274.0</ele><time>2026-03-23T15:30:01.001Z</time></trkpt><trkpt lat="44.42107150084859" lon="6.742838765165018"><ele>1274.0</ele><time>2026-03-23T15:30:03.001Z</time></trkpt><trkpt lat="44.42104442783519" lon="6.742747401924205"><ele>1274.0</ele><time>2026-03-23T15:30:05.001Z</time></trkpt><trkpt lat="44.42096271852266" lon="6.7427282397508055"><ele>1274.0</ele><time>2026-03-23T15:30:07.001Z</time></trkpt><trkpt lat="44.420866798861475" lon="6.742742423445163"><ele>1274.0</ele><time>2026-03-23T15:30:09.001Z</time></trkpt><trkpt lat="44.42076821603758" lon="6.7426917431031255"><ele>1274.0</ele><time>2026-03-23T15:30:11.001Z</time></trkpt><trkpt lat="44.4206625066727" lon="6.7425932034115235"><ele>1270.5</ele><time>2026-03-23T15:30:13.001Z</time></trkpt><trkpt lat="44.42055477652109" lon="6.742498516332003"><ele>1267.0</ele><time>2026-03-23T15:30:15.001Z</time></trkpt><trkpt lat="44.420494462120104" lon="6.7424459405084916"><ele>1263.5</ele><time>2026-03-23T15:30:16.001Z</time></trkpt><trkpt lat="44.42043725310291" lon="6.742402208030829"><ele>1260.0</ele><time>2026-03-23T15:30:17.001Z</time></trkpt><trkpt lat="44.420372090345104" lon="6.742358818989217"><ele>1256.5</ele><time>2026-03-23T15:30:18.001Z</time></trkpt><trkpt lat="44.420308022984784" lon="6.742318791964714"><ele>1253.0</ele><time>2026-03-23T15:30:19Z</time></trkpt><trkpt lat="44.42020763477776" lon="6.7422630892660385"><ele>1253.0</ele><time>2026-03-23T15:30:21Z</time></trkpt><trkpt lat="44.420112257786535" lon="6.742272309831936"><ele>1253.0</ele><time>2026-03-23T15:30:23Z</time></trkpt><trkpt lat="44.420050519194795" lon="6.742206028320598"><ele>1253.0</ele><time>2026-03-23T15:30:25Z</time></trkpt><trkpt lat="44.42008424616281" lon="6.742081119591043"><ele>1253.0</ele><time>2026-03-23T15:30:27Z</time></trkpt><trkpt lat="44.42018430770936" lon="6.7420267326118966"><ele>1253.0</ele><time>2026-03-23T15:30:29Z</time></trkpt><trkpt lat="44.42029424823071" lon="6.74200640512676"><ele>1253.0</ele><time>2026-03-23T15:30:31Z</time></trkpt><trkpt lat="44.420415853528795" lon="6.742020236657783"><ele>1253.0</ele><time>2026-03-23T15:30:33Z</time></trkpt><trkpt lat="44.42047990673243" lon="6.742040597469857"><ele>1253.0</ele><time>2026-03-23T15:30:34Z</time></trkpt><trkpt lat="44.42054425323626" lon="6.7420672743823955"><ele>1253.0</ele><time>2026-03-23T15:30:35Z</time></trkpt><trkpt lat="44.420612060336154" lon="6.742099443860835"><ele>1253.0</ele><time>2026-03-23T15:30:36Z</time></trkpt><trkpt lat="44.420681939476786" lon="6.7421327314352775"><ele>1253.0</ele><time>2026-03-23T15:30:37Z</time></trkpt><trkpt lat="44.42075052254112" lon="6.742164272122309"><ele>1253.0</ele><time>2026-03-23T15:30:38Z</time></trkpt><trkpt lat="44.42081645582776" lon="6.74217832256205"><ele>1253.0</ele><time>2026-03-23T15:30:39Z</time></trkpt><trkpt lat="44.420891453474624" lon="6.742167584708751"><ele>1253.0</ele><time>2026-03-23T15:30:40Z</time></trkpt><trkpt lat="44.420968019875346" lon="6.742149266806698"><ele>1253.0</ele><time>2026-03-23T15:30:41Z</time></trkpt><trkpt lat="44.42104818133037" lon="6.7421305280398345"><ele>1253.0</ele><time>2026-03-23T15:30:42Z</time></trkpt><trkpt lat="44.421129758640596" lon="6.74210750779659"><ele>1253.0</ele><time>2026-03-23T15:30:43Z</time></trkpt><trkpt lat="44.42121627484789" lon="6.742077307437568"><ele>1253.0</ele><time>2026-03-23T15:30:44Z</time></trkpt><trkpt lat="44.421304125066555" lon="6.742047991173115"><ele>1253.0</ele><time>2026-03-23T15:30:45Z</time></trkpt><trkpt lat="44.4213909269637" lon="6.742018336746124"><ele>1253.0</ele><time>2026-03-23T15:30:46Z</time></trkpt><trkpt lat="44.4214734661482" lon="6.741985865234769"><ele>1253.0</ele><time>2026-03-23T15:30:47Z</time></trkpt><trkpt lat="44.42155167860813" lon="6.741944637916339"><ele>1253.0</ele><time>2026-03-23T15:30:48Z</time></trkpt><trkpt lat="44.42162338426304" lon="6.741893712352752"><ele>1253.0</ele><time>2026-03-23T15:30:49Z</time></trkpt><trkpt lat="44.421701941810504" lon="6.741852897412242"><ele>1250.8333333333335</ele><time>2026-03-23T15:30:50Z</time></trkpt><trkpt lat="44.421784474146854" lon="6.74180617616419"><ele>1248.6666666666667</ele><time>2026-03-23T15:30:51Z</time></trkpt><trkpt lat="44.421858120465124" lon="6.741771964170871"><ele>1246.5</ele><time>2026-03-23T15:30:52Z</time></trkpt><trkpt lat="44.42193786943325" lon="6.741757823915589"><ele>1244.3333333333333</ele><time>2026-03-23T15:30:53Z</time></trkpt><trkpt lat="44.4220413193898" lon="6.741680756078544"><ele>1242.1666666666665</ele><time>2026-03-23T15:30:55Z</time></trkpt><trkpt lat="44.4220972737936" lon="6.741610807988966"><ele>1240.0</ele><time>2026-03-23T15:30:56Z</time></trkpt><trkpt lat="44.422153585938325" lon="6.741532383713323"><ele>1240.0</ele><time>2026-03-23T15:30:57Z</time></trkpt><trkpt lat="44.42221178379743" lon="6.741465819855882"><ele>1240.0</ele><time>2026-03-23T15:30:58Z</time></trkpt><trkpt lat="44.422274186023685" lon="6.741397910838442"><ele>1240.0</ele><time>2026-03-23T15:30:59Z</time></trkpt><trkpt lat="44.422346427990696" lon="6.741337647408017"><ele>1240.0</ele><time>2026-03-23T15:31:00Z</time></trkpt><trkpt lat="44.42242228415567" lon="6.741288326470636"><ele>1240.0</ele><time>2026-03-23T15:31:01Z</time></trkpt><trkpt lat="44.422503495353354" lon="6.741250475226349"><ele>1240.0</ele><time>2026-03-23T15:31:02Z</time></trkpt><trkpt lat="44.42258387202493" lon="6.741220490547407"><ele>1240.0</ele><time>2026-03-23T15:31:03Z</time></trkpt><trkpt lat="44.42267297114788" lon="6.74119170953913"><ele>1240.0</ele><time>2026-03-23T15:31:05Z</time></trkpt><trkpt lat="44.422638811892114" lon="6.7409953121331165"><ele>1240.0</ele><time>2026-03-23T15:31:11Z</time></trkpt><trkpt lat="44.422589641863915" lon="6.740913800971473"><ele>1240.0</ele><time>2026-03-23T15:31:13Z</time></trkpt><trkpt lat="44.42255793854775" lon="6.7407969769145835"><ele>1240.0</ele><time>2026-03-23T15:31:15Z</time></trkpt><trkpt lat="44.42255671546656" lon="6.7406726195307245"><ele>1236.6</ele><time>2026-03-23T15:31:17Z</time></trkpt><trkpt lat="44.42257440784022" lon="6.740530053112314"><ele>1233.2</ele><time>2026-03-23T15:31:19Z</time></trkpt><trkpt lat="44.4225470334465" lon="6.740389074806615"><ele>1229.8</ele><time>2026-03-23T15:31:21Z</time></trkpt><trkpt lat="44.42253369894894" lon="6.7402725543163085"><ele>1226.4</ele><time>2026-03-23T15:31:23Z</time></trkpt><trkpt lat="44.42253817916893" lon="6.740154864920271"><ele>1223.0</ele><time>2026-03-23T15:31:25Z</time></trkpt><trkpt lat="44.422569928211715" lon="6.740042846576251"><ele>1223.0</ele><time>2026-03-23T15:31:27Z</time></trkpt><trkpt lat="44.42261591415517" lon="6.739943757218361"><ele>1223.0</ele><time>2026-03-23T15:31:29Z</time></trkpt><trkpt lat="44.422621044458495" lon="6.739838498290821"><ele>1223.0</ele><time>2026-03-23T15:31:32Z</time></trkpt><trkpt lat="44.4226920642414" lon="6.739752765786328"><ele>1223.0</ele><time>2026-03-23T15:31:36Z</time></trkpt><trkpt lat="44.42277928185722" lon="6.739687288187775"><ele>1223.0</ele><time>2026-03-23T15:31:38Z</time></trkpt><trkpt lat="44.422853355464575" lon="6.739614283667335"><ele>1223.0</ele><time>2026-03-23T15:31:40Z</time></trkpt><trkpt lat="44.42293557281687" lon="6.739541460913235"><ele>1223.0</ele><time>2026-03-23T15:31:42Z</time></trkpt><trkpt lat="44.42301422613252" lon="6.739466380210821"><ele>1223.0</ele><time>2026-03-23T15:31:44Z</time></trkpt><trkpt lat="44.423092125223256" lon="6.739380198012344"><ele>1223.0</ele><time>2026-03-23T15:31:46Z</time></trkpt><trkpt lat="44.423167992281684" lon="6.7393040777542295"><ele>1223.0</ele><time>2026-03-23T15:31:48Z</time></trkpt><trkpt lat="44.423248858837866" lon="6.73923692954929"><ele>1223.0</ele><time>2026-03-23T15:31:50Z</time></trkpt><trkpt lat="44.42334319954254" lon="6.739163267070787"><ele>1223.0</ele><time>2026-03-23T15:31:52Z</time></trkpt><trkpt lat="44.42344657508031" lon="6.739142036603008"><ele>1223.0</ele><time>2026-03-23T15:31:54Z</time></trkpt><trkpt lat="44.42354212513336" lon="6.739114581898728"><ele>1223.0</ele><time>2026-03-23T15:31:56Z</time></trkpt><trkpt lat="44.42364731336178" lon="6.739127105761774"><ele>1223.0</ele><time>2026-03-23T15:31:58Z</time></trkpt><trkpt lat="44.42374866415956" lon="6.739136727837281"><ele>1223.0</ele><time>2026-03-23T15:32:00Z</time></trkpt><trkpt lat="44.42385278927522" lon="6.739151947034545"><ele>1223.2</ele><time>2026-03-23T15:32:02Z</time></trkpt><trkpt lat="44.42395280510085" lon="6.739164082293375"><ele>1223.4</ele><time>2026-03-23T15:32:04Z</time></trkpt><trkpt lat="44.424044582315176" lon="6.739185488957366"><ele>1223.6000000000001</ele><time>2026-03-23T15:32:06Z</time></trkpt><trkpt lat="44.42414383878929" lon="6.739191211483716"><ele>1223.8</ele><time>2026-03-23T15:32:08Z</time></trkpt><trkpt lat="44.424236345399386" lon="6.73921721341533"><ele>1224.0</ele><time>2026-03-23T15:32:10Z</time></trkpt><trkpt lat="44.42432705870167" lon="6.739183246597205"><ele>1224.0</ele><time>2026-03-23T15:32:12Z</time></trkpt><trkpt lat="44.42441812400652" lon="6.739127130357814"><ele>1224.0</ele><time>2026-03-23T15:32:14Z</time></trkpt><trkpt lat="44.424504348628055" lon="6.739095161978479"><ele>1224.0</ele><time>2026-03-23T15:32:16Z</time></trkpt><trkpt lat="44.42458888071169" lon="6.739062355007663"><ele>1224.0</ele><time>2026-03-23T15:32:18Z</time></trkpt><trkpt lat="44.42465509010057" lon="6.739026128054886"><ele>1224.0</ele><time>2026-03-23T15:32:21Z</time></trkpt><trkpt lat="44.42471439380124" lon="6.738945012861936"><ele>1224.0</ele><time>2026-03-23T15:32:24Z</time></trkpt><trkpt lat="44.424729804363594" lon="6.7388257672291205"><ele>1224.0</ele><time>2026-03-23T15:32:26Z</time></trkpt><trkpt lat="44.42473657608013" lon="6.738705621763593"><ele>1224.0</ele><time>2026-03-23T15:32:28Z</time></trkpt><trkpt lat="44.42463702288393" lon="6.738671551561869"><ele>1224.0</ele><time>2026-03-23T15:32:31Z</time></trkpt><trkpt lat="44.42453500896619" lon="6.738710604157896"><ele>1224.0</ele><time>2026-03-23T15:32:33Z</time></trkpt><trkpt lat="44.42443294786875" lon="6.738706243258128"><ele>1224.0</ele><time>2026-03-23T15:32:35Z</time></trkpt><trkpt lat="44.42435797867658" lon="6.7387000342635135"><ele>1224.0</ele><time>2026-03-23T15:32:37Z</time></trkpt><trkpt lat="44.42427082628359" lon="6.738685797300879"><ele>1224.0</ele><time>2026-03-23T15:32:39Z</time></trkpt><trkpt lat="44.42419589681472" lon="6.738667069596452"><ele>1224.0</ele><time>2026-03-23T15:32:41Z</time></trkpt><trkpt lat="44.42412830548103" lon="6.73868546277532"><ele>1224.0</ele><time>2026-03-23T15:32:43Z</time></trkpt><trkpt lat="44.42405796812769" lon="6.738692795687013"><ele>1224.0</ele><time>2026-03-23T15:32:45Z</time></trkpt><trkpt lat="44.424003194090254" lon="6.738603509273179"><ele>1224.0</ele><time>2026-03-23T15:32:48Z</time></trkpt><trkpt lat="44.42403656870387" lon="6.738528539593731"><ele>1224.6000000000001</ele><time>2026-03-23T15:32:50Z</time></trkpt><trkpt lat="44.42406047006161" lon="6.738423863778711"><ele>1225.2</ele><time>2026-03-23T15:32:52Z</time></trkpt><trkpt lat="44.424070410766184" lon="6.738322811263587"><ele>1225.8000000000002</ele><time>2026-03-23T15:32:54Z</time></trkpt><trkpt lat="44.42406106380634" lon="6.7381842161414385"><ele>1226.4</ele><time>2026-03-23T15:32:56Z</time></trkpt><trkpt lat="44.42407338557723" lon="6.738040870067254"><ele>1227.0</ele><time>2026-03-23T15:32:58Z</time></trkpt><trkpt lat="44.42409008684593" lon="6.737902502434894"><ele>1227.0</ele><time>2026-03-23T15:33:00Z</time></trkpt><trkpt lat="44.424104907518505" lon="6.737772767941341"><ele>1227.0</ele><time>2026-03-23T15:33:02Z</time></trkpt><trkpt lat="44.42412219378235" lon="6.737645507361418"><ele>1227.0</ele><time>2026-03-23T15:33:04Z</time></trkpt><trkpt lat="44.42414706976031" lon="6.737530205274991"><ele>1227.0</ele><time>2026-03-23T15:33:06Z</time></trkpt><trkpt lat="44.42415360028226" lon="6.737391540006515"><ele>1227.0</ele><time>2026-03-23T15:33:08Z</time></trkpt><trkpt lat="44.42416124511684" lon="6.7372725657908905"><ele>1227.4</ele><time>2026-03-23T15:33:10Z</time></trkpt><trkpt lat="44.4241705307804" lon="6.737167191509932"><ele>1227.8000000000002</ele><time>2026-03-23T15:33:13Z</time></trkpt><trkpt lat="44.42424898000788" lon="6.737105875771214"><ele>1228.2</ele><time>2026-03-23T15:33:17Z</time></trkpt><trkpt lat="44.42426320529143" lon="6.736978789594325"><ele>1228.6000000000001</ele><time>2026-03-23T15:33:19Z</time></trkpt><trkpt lat="44.424308827478015" lon="6.7368402660090965"><ele>1229.0</ele><time>2026-03-23T15:33:21Z</time></trkpt><trkpt lat="44.42439224109232" lon="6.7367556900836245"><ele>1229.2</ele><time>2026-03-23T15:33:23Z</time></trkpt><trkpt lat="44.424490129924514" lon="6.736712083177291"><ele>1229.4</ele><time>2026-03-23T15:33:25Z</time></trkpt><trkpt lat="44.42458535066353" lon="6.736682874662919"><ele>1229.6</ele><time>2026-03-23T15:33:27Z</time></trkpt><trkpt lat="44.42467451713945" lon="6.736647250351007"><ele>1229.8</ele><time>2026-03-23T15:33:29Z</time></trkpt><trkpt lat="44.42476165523264" lon="6.736607208084929"><ele>1230.0</ele><time>2026-03-23T15:33:31Z</time></trkpt><trkpt lat="44.42484703696593" lon="6.736557881594352"><ele>1230.5</ele><time>2026-03-23T15:33:33Z</time></trkpt><trkpt lat="44.42493921230448" lon="6.7365171792555"><ele>1231.0</ele><time>2026-03-23T15:33:35Z</time></trkpt><trkpt lat="44.425031258127014" lon="6.736477904183726"><ele>1231.5</ele><time>2026-03-23T15:33:37Z</time></trkpt><trkpt lat="44.42510172239684" lon="6.7364271770179975"><ele>1232.0</ele><time>2026-03-23T15:33:39Z</time></trkpt><trkpt lat="44.42516912180747" lon="6.736376379698346"><ele>1232.5</ele><time>2026-03-23T15:33:41Z</time></trkpt><trkpt lat="44.42522935105698" lon="6.736312353397709"><ele>1233.0</ele><time>2026-03-23T15:33:43Z</time></trkpt><trkpt lat="44.42528833929135" lon="6.7362487061781255"><ele>1233.0</ele><time>2026-03-23T15:33:45Z</time></trkpt><trkpt lat="44.42533102231926" lon="6.736165819301264"><ele>1233.0</ele><time>2026-03-23T15:33:47Z</time></trkpt><trkpt lat="44.425367233815635" lon="6.7360660370712235"><ele>1233.0</ele><time>2026-03-23T15:33:50Z</time></trkpt><trkpt lat="44.42542404459642" lon="6.73596870508976"><ele>1233.0</ele><time>2026-03-23T15:33:53Z</time></trkpt><trkpt lat="44.4254792391923" lon="6.735911947415731"><ele>1233.0</ele><time>2026-03-23T15:33:55Z</time></trkpt><trkpt lat="44.425544988977066" lon="6.7358336135644326"><ele>1233.0</ele><time>2026-03-23T15:33:58Z</time></trkpt><trkpt lat="44.42560744160827" lon="6.735745324393552"><ele>1235.0</ele><time>2026-03-23T15:34:01Z</time></trkpt><trkpt lat="44.42566031352329" lon="6.7356499272002"><ele>1237.0</ele><time>2026-03-23T15:34:04Z</time></trkpt><trkpt lat="44.425718578025105" lon="6.7355722455417615"><ele>1239.0</ele><time>2026-03-23T15:34:07Z</time></trkpt><trkpt lat="44.42578863775023" lon="6.73553495289386"><ele>1241.0</ele><time>2026-03-23T15:34:10Z</time></trkpt><trkpt lat="44.42587435505979" lon="6.735517291197597"><ele>1243.0</ele><time>2026-03-23T15:34:14Z</time></trkpt><trkpt lat="44.42593612107595" lon="6.7354825256852076"><ele>1245.0</ele><time>2026-03-23T15:34:17Z</time></trkpt><trkpt lat="44.426001788406445" lon="6.735385262816115"><ele>1245.0</ele><time>2026-03-23T15:34:21Z</time></trkpt><trkpt lat="44.42605840050162" lon="6.7352961887362435"><ele>1245.0</ele><time>2026-03-23T15:34:25Z</time></trkpt><trkpt lat="44.426120728744586" lon="6.735278236831585"><ele>1245.0</ele><time>2026-03-23T15:34:28Z</time></trkpt><trkpt lat="44.4261916813211" lon="6.735255460221414"><ele>1245.0</ele><time>2026-03-23T15:34:31Z</time></trkpt><trkpt lat="44.426292065472815" lon="6.735230167332189"><ele>1245.0</ele><time>2026-03-23T15:34:35Z</time></trkpt><trkpt lat="44.42637399448857" lon="6.735200081299517"><ele>1245.0</ele><time>2026-03-23T15:34:39Z</time></trkpt><trkpt lat="44.426439729185844" lon="6.735160347306558"><ele>1244.8333333333333</ele><time>2026-03-23T15:34:42Z</time></trkpt><trkpt lat="44.426522132122074" lon="6.735138086648132"><ele>1244.6666666666667</ele><time>2026-03-23T15:34:45Z</time></trkpt><trkpt lat="44.426601668938986" lon="6.735144552740988"><ele>1244.5</ele><time>2026-03-23T15:34:48Z</time></trkpt><trkpt lat="44.42668352670247" lon="6.735216654178974"><ele>1244.3333333333335</ele><time>2026-03-23T15:34:51Z</time></trkpt><trkpt lat="44.42675359500115" lon="6.735278318808872"><ele>1244.1666666666667</ele><time>2026-03-23T15:34:54Z</time></trkpt><trkpt lat="44.42680361441512" lon="6.7353321719602235"><ele>1244.0</ele><time>2026-03-23T15:34:56Z</time></trkpt><trkpt lat="44.42688976400609" lon="6.735407197657764"><ele>1244.0</ele><time>2026-03-23T15:34:58Z</time></trkpt><trkpt lat="44.426969729463416" lon="6.735436184403246"><ele>1244.0</ele><time>2026-03-23T15:35:00Z</time></trkpt><trkpt lat="44.42703144313969" lon="6.735457885388902"><ele>1244.0</ele><time>2026-03-23T15:35:02Z</time></trkpt><trkpt lat="44.42710312412836" lon="6.735469511273173"><ele>1244.0</ele><time>2026-03-23T15:35:05Z</time></trkpt><trkpt lat="44.427178759737046" lon="6.735470493039423"><ele>1244.0</ele><time>2026-03-23T15:35:07Z</time></trkpt><trkpt lat="44.427241531486985" lon="6.735481009655713"><ele>1244.0</ele><time>2026-03-23T15:35:09Z</time></trkpt><trkpt lat="44.4273302120343" lon="6.735489113148523"><ele>1244.0</ele><time>2026-03-23T15:35:12Z</time></trkpt><trkpt lat="44.427395412500566" lon="6.735496194220391"><ele>1244.3333333333335</ele><time>2026-03-23T15:35:14Z</time></trkpt><trkpt lat="44.42748241907998" lon="6.735494261422799"><ele>1244.6666666666667</ele><time>2026-03-23T15:35:17Z</time></trkpt><trkpt lat="44.427557145580835" lon="6.735455027929898"><ele>1245.0</ele><time>2026-03-23T15:35:20Z</time></trkpt><trkpt lat="44.427623576469074" lon="6.73542288108799"><ele>1245.3333333333333</ele><time>2026-03-23T15:35:22Z</time></trkpt><trkpt lat="44.42770206680272" lon="6.735401938851805"><ele>1245.6666666666665</ele><time>2026-03-23T15:35:25Z</time></trkpt><trkpt lat="44.42777208736047" lon="6.735441850700159"><ele>1246.0</ele><time>2026-03-23T15:35:28Z</time></trkpt><trkpt lat="44.42784190627688" lon="6.735454669903833"><ele>1246.0</ele><time>2026-03-23T15:35:30Z</time></trkpt><trkpt lat="44.42790894042831" lon="6.735463870904317"><ele>1246.0</ele><time>2026-03-23T15:35:32Z</time></trkpt><trkpt lat="44.427984943591106" lon="6.735458380920734"><ele>1246.0</ele><time>2026-03-23T15:35:34Z</time></trkpt><trkpt lat="44.428047199230164" lon="6.735472507850808"><ele>1246.0</ele><time>2026-03-23T15:35:36Z</time></trkpt><trkpt lat="44.42813994914292" lon="6.735489117636245"><ele>1246.0</ele><time>2026-03-23T15:35:40Z</time></trkpt><trkpt lat="44.428206606200085" lon="6.735487774968298"><ele>1246.0</ele><time>2026-03-23T15:35:43Z</time></trkpt><trkpt lat="44.428297559055515" lon="6.7354866994171365"><ele>1246.0</ele><time>2026-03-23T15:35:46Z</time></trkpt><trkpt lat="44.428378335273244" lon="6.7354634828986155"><ele>1246.0</ele><time>2026-03-23T15:35:50Z</time></trkpt><trkpt lat="44.42844601687616" lon="6.735442633887284"><ele>1246.0</ele><time>2026-03-23T15:35:52Z</time></trkpt><trkpt lat="44.42852030340573" lon="6.735417975893112"><ele>1246.0</ele><time>2026-03-23T15:35:54Z</time></trkpt><trkpt lat="44.428612119121496" lon="6.735388047373984"><ele>1246.0</ele><time>2026-03-23T15:35:56Z</time></trkpt><trkpt lat="44.42868015445599" lon="6.735356949841124"><ele>1246.0</ele><time>2026-03-23T15:35:58Z</time></trkpt><trkpt lat="44.42876869771498" lon="6.735330151735412"><ele>1245.3333333333333</ele><time>2026-03-23T15:36:01Z</time></trkpt><trkpt lat="44.428833477894585" lon="6.735315241667739"><ele>1244.6666666666665</ele><time>2026-03-23T15:36:04Z</time></trkpt><trkpt lat="44.42890821163997" lon="6.7352918919977505"><ele>1244.0</ele><time>2026-03-23T15:36:07Z</time></trkpt><trkpt lat="44.42897642267469" lon="6.7352668610879345"><ele>1243.3333333333333</ele><time>2026-03-23T15:36:10Z</time></trkpt><trkpt lat="44.42905092666978" lon="6.735244511145664"><ele>1242.6666666666667</ele><time>2026-03-23T15:36:13Z</time></trkpt><trkpt lat="44.42913809688852" lon="6.735235987235598"><ele>1242.0</ele><time>2026-03-23T15:36:16Z</time></trkpt><trkpt lat="44.429223963384615" lon="6.735214837642218"><ele>1242.0</ele><time>2026-03-23T15:36:19Z</time></trkpt><trkpt lat="44.42931333564042" lon="6.735226650646238"><ele>1242.0</ele><time>2026-03-23T15:36:22Z</time></trkpt><trkpt lat="44.42938422881375" lon="6.735213975324039"><ele>1242.0</ele><time>2026-03-23T15:36:25Z</time></trkpt><trkpt lat="44.429447279840005" lon="6.735254255658418"><ele>1242.0</ele><time>2026-03-23T15:36:28Z</time></trkpt><trkpt lat="44.429518943065396" lon="6.735300088449966"><ele>1242.0</ele><time>2026-03-23T15:36:31Z</time></trkpt><trkpt lat="44.42960248971816" lon="6.7353498824635665"><ele>1242.0</ele><time>2026-03-23T15:36:35Z</time></trkpt><trkpt lat="44.429660111030046" lon="6.735386812836948"><ele>1246.3333333333333</ele><time>2026-03-23T15:36:38Z</time></trkpt><trkpt lat="44.42972606359672" lon="6.73540695218349"><ele>1250.6666666666667</ele><time>2026-03-23T15:36:41Z</time></trkpt><trkpt lat="44.42979976879163" lon="6.7354454406890545"><ele>1255.0</ele><time>2026-03-23T15:36:45Z</time></trkpt><trkpt lat="44.429877829385596" lon="6.7355071742227"><ele>1259.3333333333335</ele><time>2026-03-23T15:36:49Z</time></trkpt><trkpt lat="44.42996356340638" lon="6.735544142392728"><ele>1263.6666666666667</ele><time>2026-03-23T15:36:53Z</time></trkpt><trkpt lat="44.43004309629492" lon="6.735606916452155"><ele>1268.0</ele><time>2026-03-23T15:36:57Z</time></trkpt><trkpt lat="44.43011921190101" lon="6.735645974341409"><ele>1268.0</ele><time>2026-03-23T15:37:01Z</time></trkpt><trkpt lat="44.430201554574296" lon="6.735724609799577"><ele>1268.0</ele><time>2026-03-23T15:37:05Z</time></trkpt><trkpt lat="44.4302536246281" lon="6.735807961267747"><ele>1268.0</ele><time>2026-03-23T15:37:09Z</time></trkpt><trkpt lat="44.43030379123645" lon="6.735889146985465"><ele>1268.0</ele><time>2026-03-23T15:37:12Z</time></trkpt><trkpt lat="44.430370119901454" lon="6.735932411321629"><ele>1268.0</ele><time>2026-03-23T15:37:15Z</time></trkpt><trkpt lat="44.43042232701095" lon="6.736010273299862"><ele>1268.0</ele><time>2026-03-23T15:37:19Z</time></trkpt><trkpt lat="44.430501502605" lon="6.7360599796242475"><ele>1269.7142857142858</ele><time>2026-03-23T15:37:23Z</time></trkpt><trkpt lat="44.43055650963975" lon="6.736103263356709"><ele>1271.4285714285713</ele><time>2026-03-23T15:37:26Z</time></trkpt><trkpt lat="44.43062691607588" lon="6.736145398165524"><ele>1273.142857142857</ele><time>2026-03-23T15:37:29Z</time></trkpt><trkpt lat="44.430683935910224" lon="6.736196622029812"><ele>1274.857142857143</ele><time>2026-03-23T15:37:32Z</time></trkpt><trkpt lat="44.43073565823815" lon="6.736247235862011"><ele>1276.5714285714287</ele><time>2026-03-23T15:37:35Z</time></trkpt><trkpt lat="44.430804471183336" lon="6.736310667757401"><ele>1278.2857142857142</ele><time>2026-03-23T15:37:39Z</time></trkpt><trkpt lat="44.430853118605285" lon="6.736368430422915"><ele>1280.0</ele><time>2026-03-23T15:37:42Z</time></trkpt><trkpt lat="44.43090043881819" lon="6.736459665254797"><ele>1280.0</ele><time>2026-03-23T15:37:46Z</time></trkpt><trkpt lat="44.43094570016097" lon="6.73653910180814"><ele>1280.0</ele><time>2026-03-23T15:37:49Z</time></trkpt><trkpt lat="44.430986814820436" lon="6.736622667299939"><ele>1280.0</ele><time>2026-03-23T15:37:52Z</time></trkpt><trkpt lat="44.43103039668317" lon="6.736703966304924"><ele>1280.0</ele><time>2026-03-23T15:37:55Z</time></trkpt><trkpt lat="44.431076833952844" lon="6.73676369718108"><ele>1280.0</ele><time>2026-03-23T15:37:58Z</time></trkpt><trkpt lat="44.43116041417242" lon="6.736787233181873"><ele>1280.0</ele><time>2026-03-23T15:38:02Z</time></trkpt><trkpt lat="44.4312279538042" lon="6.736807531460796"><ele>1280.0</ele><time>2026-03-23T15:38:06Z</time></trkpt><trkpt lat="44.43129742907136" lon="6.736830614690974"><ele>1281.8333333333335</ele><time>2026-03-23T15:38:10Z</time></trkpt><trkpt lat="44.43137169637229" lon="6.736843956939931"><ele>1283.6666666666667</ele><time>2026-03-23T15:38:13Z</time></trkpt><trkpt lat="44.43144976311978" lon="6.736875515497965"><ele>1285.5</ele><time>2026-03-23T15:38:17Z</time></trkpt><trkpt lat="44.4315452457945" lon="6.736924724192755"><ele>1287.3333333333333</ele><time>2026-03-23T15:38:21Z</time></trkpt><trkpt lat="44.43158939366217" lon="6.737014276403917"><ele>1289.1666666666665</ele><time>2026-03-23T15:38:24Z</time></trkpt><trkpt lat="44.43166065900382" lon="6.737080238351111"><ele>1291.0</ele><time>2026-03-23T15:38:27Z</time></trkpt><trkpt lat="44.431738151102856" lon="6.7371423312108725"><ele>1291.0</ele><time>2026-03-23T15:38:30Z</time></trkpt><trkpt lat="44.43179436542081" lon="6.737193196813526"><ele>1291.0</ele><time>2026-03-23T15:38:33Z</time></trkpt><trkpt lat="44.43188850537558" lon="6.7372405293799655"><ele>1291.0</ele><time>2026-03-23T15:38:37Z</time></trkpt><trkpt lat="44.43192983200132" lon="6.737310132779086"><ele>1291.0</ele><time>2026-03-23T15:38:40Z</time></trkpt><trkpt lat="44.431960549030435" lon="6.737394610011337"><ele>1291.0</ele><time>2026-03-23T15:38:43Z</time></trkpt><trkpt lat="44.43201231323316" lon="6.73747692367645"><ele>1291.0</ele><time>2026-03-23T15:38:46Z</time></trkpt><trkpt lat="44.43204678073145" lon="6.737611435064084"><ele>1291.0</ele><time>2026-03-23T15:38:50Z</time></trkpt><trkpt lat="44.432052264994596" lon="6.737711328986585"><ele>1291.0</ele><time>2026-03-23T15:38:54Z</time></trkpt><trkpt lat="44.43203890021307" lon="6.737797583947902"><ele>1291.0</ele><time>2026-03-23T15:38:57Z</time></trkpt><trkpt lat="44.43203097729861" lon="6.73789441900054"><ele>1291.0</ele><time>2026-03-23T15:40:19Z</time></trkpt><trkpt lat="44.43205926745164" lon="6.73774556167593"><ele>1291.0</ele><time>2026-03-23T15:40:36.999Z</time></trkpt><trkpt lat="44.43206366519558" lon="6.737657495698644"><ele>1291.0</ele><time>2026-03-23T15:40:38.999Z</time></trkpt><trkpt lat="44.43204080639337" lon="6.737559488217642"><ele>1291.0</ele><time>2026-03-23T15:40:41Z</time></trkpt><trkpt lat="44.43201092895713" lon="6.737472227376014"><ele>1291.0</ele><time>2026-03-23T15:40:43Z</time></trkpt><trkpt lat="44.4319756441032" lon="6.737375533021829"><ele>1291.0</ele><time>2026-03-23T15:40:45Z</time></trkpt><trkpt lat="44.431940248869964" lon="6.737301568641194"><ele>1291.0</ele><time>2026-03-23T15:40:47Z</time></trkpt><trkpt lat="44.431854529411716" lon="6.737225784461863"><ele>1291.0</ele><time>2026-03-23T15:40:49Z</time></trkpt><trkpt lat="44.43177330087736" lon="6.737182181715235"><ele>1291.0</ele><time>2026-03-23T15:40:51Z</time></trkpt><trkpt lat="44.43169611181454" lon="6.73713859083356"><ele>1291.0</ele><time>2026-03-23T15:40:53Z</time></trkpt><trkpt lat="44.43162277685755" lon="6.737039285371087"><ele>1291.0</ele><time>2026-03-23T15:40:55Z</time></trkpt><trkpt lat="44.43157519522117" lon="6.736940161667763"><ele>1291.0</ele><time>2026-03-23T15:40:57Z</time></trkpt><trkpt lat="44.43151678104781" lon="6.736891958611562"><ele>1291.0</ele><time>2026-03-23T15:40:59Z</time></trkpt><trkpt lat="44.431413876873265" lon="6.736869924999341"><ele>1291.0</ele><time>2026-03-23T15:41:02Z</time></trkpt><trkpt lat="44.43133563872238" lon="6.736847156482799"><ele>1291.0</ele><time>2026-03-23T15:41:04Z</time></trkpt><trkpt lat="44.43124895494725" lon="6.736814459250506"><ele>1288.8</ele><time>2026-03-23T15:41:06Z</time></trkpt><trkpt lat="44.43116467543381" lon="6.736796327982991"><ele>1286.6</ele><time>2026-03-23T15:41:08Z</time></trkpt><trkpt lat="44.431073143571055" lon="6.736775626602187"><ele>1284.4</ele><time>2026-03-23T15:41:11Z</time></trkpt><trkpt lat="44.43102425418494" lon="6.736701808682032"><ele>1282.2</ele><time>2026-03-23T15:41:13Z</time></trkpt><trkpt lat="44.43096076092483" lon="6.736565851925442"><ele>1280.0</ele><time>2026-03-23T15:41:15Z</time></trkpt><trkpt lat="44.43089700962865" lon="6.736439059365003"><ele>1280.0</ele><time>2026-03-23T15:41:17Z</time></trkpt><trkpt lat="44.430849874869416" lon="6.736377792317388"><ele>1280.0</ele><time>2026-03-23T15:41:19Z</time></trkpt><trkpt lat="44.43080091335105" lon="6.736311492569862"><ele>1280.0</ele><time>2026-03-23T15:41:21Z</time></trkpt><trkpt lat="44.43074161980712" lon="6.736257182238265"><ele>1280.0</ele><time>2026-03-23T15:41:23Z</time></trkpt><trkpt lat="44.43068110337215" lon="6.736178646633041"><ele>1280.0</ele><time>2026-03-23T15:41:28Z</time></trkpt><trkpt lat="44.430603509844076" lon="6.736103875348503"><ele>1280.0</ele><time>2026-03-23T15:41:31Z</time></trkpt><trkpt lat="44.430537147758315" lon="6.736073928887825"><ele>1278.0</ele><time>2026-03-23T15:41:33Z</time></trkpt><trkpt lat="44.43047482917149" lon="6.736038171644225"><ele>1276.0</ele><time>2026-03-23T15:41:35Z</time></trkpt><trkpt lat="44.43041862280087" lon="6.735994990436747"><ele>1274.0</ele><time>2026-03-23T15:41:44Z</time></trkpt><trkpt lat="44.4303497737901" lon="6.7359066421221465"><ele>1272.0</ele><time>2026-03-23T15:41:48Z</time></trkpt><trkpt lat="44.43029186068904" lon="6.735844056566813"><ele>1270.0</ele><time>2026-03-23T15:41:50Z</time></trkpt><trkpt lat="44.43024424645488" lon="6.73575591349335"><ele>1268.0</ele><time>2026-03-23T15:41:52Z</time></trkpt><trkpt lat="44.43016800673698" lon="6.735676658619888"><ele>1268.0</ele><time>2026-03-23T15:41:54Z</time></trkpt><trkpt lat="44.43008956059333" lon="6.735631946636456"><ele>1268.0</ele><time>2026-03-23T15:41:57Z</time></trkpt><trkpt lat="44.430028746537296" lon="6.735572261358746"><ele>1268.0</ele><time>2026-03-23T15:41:59Z</time></trkpt><trkpt lat="44.429950789831494" lon="6.735488518524848"><ele>1268.0</ele><time>2026-03-23T15:42:01Z</time></trkpt><trkpt lat="44.42987352295697" lon="6.735448963312094"><ele>1268.0</ele><time>2026-03-23T15:42:03Z</time></trkpt><trkpt lat="44.42980537424535" lon="6.735407263517295"><ele>1268.0</ele><time>2026-03-23T15:42:05Z</time></trkpt><trkpt lat="44.429737350624244" lon="6.735350751556548"><ele>1268.0</ele><time>2026-03-23T15:42:08Z</time></trkpt><trkpt lat="44.42966473261455" lon="6.735355858369676"><ele>1268.0</ele><time>2026-03-23T15:42:11Z</time></trkpt><trkpt lat="44.42960556251313" lon="6.735312966419522"><ele>1268.0</ele><time>2026-03-23T15:42:13Z</time></trkpt><trkpt lat="44.42953465699103" lon="6.735268037617462"><ele>1268.0</ele><time>2026-03-23T15:42:15Z</time></trkpt><trkpt lat="44.42946724180506" lon="6.735219337548331"><ele>1268.0</ele><time>2026-03-23T15:42:17Z</time></trkpt><trkpt lat="44.42937079516181" lon="6.735200080331726"><ele>1268.0</ele><time>2026-03-23T15:42:20Z</time></trkpt><trkpt lat="44.4292529037636" lon="6.735199549310132"><ele>1268.4285714285716</ele><time>2026-03-23T15:42:22Z</time></trkpt><trkpt lat="44.42918730146921" lon="6.735219740156748"><ele>1268.857142857143</ele><time>2026-03-23T15:42:23Z</time></trkpt><trkpt lat="44.42912036540693" lon="6.73523302126407"><ele>1269.2857142857142</ele><time>2026-03-23T15:42:24Z</time></trkpt><trkpt lat="44.42905002609184" lon="6.735253622132694"><ele>1269.7142857142858</ele><time>2026-03-23T15:42:25Z</time></trkpt><trkpt lat="44.42897968732745" lon="6.735274310010642"><ele>1270.142857142857</ele><time>2026-03-23T15:42:26Z</time></trkpt><trkpt lat="44.42891081925325" lon="6.735290519872512"><ele>1270.5714285714287</ele><time>2026-03-23T15:42:27Z</time></trkpt><trkpt lat="44.42884793930503" lon="6.735305794815158"><ele>1271.0</ele><time>2026-03-23T15:42:28Z</time></trkpt><trkpt lat="44.42878509200381" lon="6.735313720059115"><ele>1266.0</ele><time>2026-03-23T15:42:29Z</time></trkpt><trkpt lat="44.428673259353275" lon="6.7353631682498385"><ele>1261.0</ele><time>2026-03-23T15:42:31Z</time></trkpt><trkpt lat="44.42856415880159" lon="6.735414934909513"><ele>1256.0</ele><time>2026-03-23T15:42:33Z</time></trkpt><trkpt lat="44.42848392973178" lon="6.735469120772287"><ele>1251.0</ele><time>2026-03-23T15:42:35Z</time></trkpt><trkpt lat="44.42841617648953" lon="6.735489859777136"><ele>1246.0</ele><time>2026-03-23T15:42:37Z</time></trkpt><trkpt lat="44.428337920503196" lon="6.735483011072392"><ele>1246.0</ele><time>2026-03-23T15:42:40Z</time></trkpt><trkpt lat="44.42825675982668" lon="6.735491305268595"><ele>1246.0</ele><time>2026-03-23T15:42:44Z</time></trkpt><trkpt lat="44.428171509182576" lon="6.7354917116251505"><ele>1246.0</ele><time>2026-03-23T15:42:46Z</time></trkpt><trkpt lat="44.42809120688619" lon="6.735484357681548"><ele>1246.0</ele><time>2026-03-23T15:42:48Z</time></trkpt><trkpt lat="44.42802407104505" lon="6.7354642487341785"><ele>1246.0</ele><time>2026-03-23T15:42:50Z</time></trkpt><trkpt lat="44.427960278508756" lon="6.735464332450339"><ele>1246.0</ele><time>2026-03-23T15:42:52Z</time></trkpt><trkpt lat="44.4278789016256" lon="6.735454807968032"><ele>1246.0</ele><time>2026-03-23T15:42:54Z</time></trkpt><trkpt lat="44.427806178859385" lon="6.735427908442728"><ele>1246.0</ele><time>2026-03-23T15:42:57Z</time></trkpt><trkpt lat="44.42773287406665" lon="6.735383318418039"><ele>1246.0</ele><time>2026-03-23T15:43:00Z</time></trkpt><trkpt lat="44.42766637659834" lon="6.735407523450552"><ele>1246.0</ele><time>2026-03-23T15:43:03Z</time></trkpt><trkpt lat="44.42758209512225" lon="6.735446737721922"><ele>1246.0</ele><time>2026-03-23T15:43:06Z</time></trkpt><trkpt lat="44.42751295652333" lon="6.735486671158832"><ele>1246.0</ele><time>2026-03-23T15:43:08Z</time></trkpt><trkpt lat="44.42742200097615" lon="6.735504345531231"><ele>1246.0</ele><time>2026-03-23T15:43:10Z</time></trkpt><trkpt lat="44.427318294574775" lon="6.735489703543083"><ele>1246.0</ele><time>2026-03-23T15:43:12Z</time></trkpt><trkpt lat="44.4272403798752" lon="6.735477673913757"><ele>1246.0</ele><time>2026-03-23T15:43:14Z</time></trkpt><trkpt lat="44.42716920211802" lon="6.7354728023131205"><ele>1246.0</ele><time>2026-03-23T15:43:16Z</time></trkpt><trkpt lat="44.42709516643771" lon="6.7354702640899395"><ele>1246.0</ele><time>2026-03-23T15:43:18Z</time></trkpt><trkpt lat="44.42701544538686" lon="6.735450012281321"><ele>1246.0</ele><time>2026-03-23T15:43:20Z</time></trkpt><trkpt lat="44.42693661461858" lon="6.735411976794407"><ele>1245.6666666666665</ele><time>2026-03-23T15:43:22Z</time></trkpt><trkpt lat="44.42686028545749" lon="6.735352411898372"><ele>1245.3333333333333</ele><time>2026-03-23T15:43:24Z</time></trkpt><trkpt lat="44.42680572282878" lon="6.735277608478613"><ele>1245.0</ele><time>2026-03-23T15:43:26Z</time></trkpt><trkpt lat="44.426741262705136" lon="6.735194384032858"><ele>1244.6666666666667</ele><time>2026-03-23T15:43:28Z</time></trkpt><trkpt lat="44.42667457248356" lon="6.735162520083649"><ele>1244.3333333333335</ele><time>2026-03-23T15:43:30Z</time></trkpt><trkpt lat="44.4265892803069" lon="6.735156187079527"><ele>1244.0</ele><time>2026-03-23T15:43:32Z</time></trkpt><trkpt lat="44.426491903531904" lon="6.735188856265875"><ele>1244.0</ele><time>2026-03-23T15:43:34Z</time></trkpt><trkpt lat="44.4264262868146" lon="6.735199627026808"><ele>1244.0</ele><time>2026-03-23T15:43:36Z</time></trkpt><trkpt lat="44.426346289778465" lon="6.735223029423097"><ele>1244.0</ele><time>2026-03-23T15:43:39Z</time></trkpt><trkpt lat="44.42627937979222" lon="6.735250083156828"><ele>1244.0</ele><time>2026-03-23T15:43:42Z</time></trkpt><trkpt lat="44.42619276419803" lon="6.7352455514883385"><ele>1244.0</ele><time>2026-03-23T15:43:45Z</time></trkpt><trkpt lat="44.42612962912312" lon="6.735250130891283"><ele>1244.0</ele><time>2026-03-23T15:43:47Z</time></trkpt><trkpt lat="44.4260733183126" lon="6.735324402075567"><ele>1244.0</ele><time>2026-03-23T15:43:50Z</time></trkpt><trkpt lat="44.426037377923414" lon="6.735398702005978"><ele>1244.25</ele><time>2026-03-23T15:43:52Z</time></trkpt><trkpt lat="44.42583906538296" lon="6.735488905805707"><ele>1244.5</ele><time>2026-03-23T15:43:55Z</time></trkpt><trkpt lat="44.42577478988219" lon="6.735541246834752"><ele>1244.75</ele><time>2026-03-23T15:43:56Z</time></trkpt><trkpt lat="44.4256699749282" lon="6.735606292057047"><ele>1245.0</ele><time>2026-03-23T15:43:58Z</time></trkpt><trkpt lat="44.425625548609" lon="6.735672734417611"><ele>1245.0</ele><time>2026-03-23T15:43:59Z</time></trkpt><trkpt lat="44.425571665161826" lon="6.735774420795401"><ele>1245.0</ele><time>2026-03-23T15:44:00Z</time></trkpt><trkpt lat="44.42551357235371" lon="6.7358619628422645"><ele>1245.0</ele><time>2026-03-23T15:44:01Z</time></trkpt><trkpt lat="44.42545670995478" lon="6.735935105237568"><ele>1245.0</ele><time>2026-03-23T15:44:02Z</time></trkpt><trkpt lat="44.425404550451496" lon="6.736007803182005"><ele>1245.0</ele><time>2026-03-23T15:44:03Z</time></trkpt><trkpt lat="44.425357750293124" lon="6.73608030546582"><ele>1245.0</ele><time>2026-03-23T15:44:04Z</time></trkpt><trkpt lat="44.425313627108544" lon="6.736159080818847"><ele>1243.2857142857142</ele><time>2026-03-23T15:44:05Z</time></trkpt><trkpt lat="44.425273201326995" lon="6.73623512506405"><ele>1241.5714285714287</ele><time>2026-03-23T15:44:06Z</time></trkpt><trkpt lat="44.425229146025714" lon="6.736305862585245"><ele>1239.857142857143</ele><time>2026-03-23T15:44:07Z</time></trkpt><trkpt lat="44.4251734240802" lon="6.736375727204865"><ele>1238.142857142857</ele><time>2026-03-23T15:44:08Z</time></trkpt><trkpt lat="44.42511008074633" lon="6.736423008032834"><ele>1236.4285714285713</ele><time>2026-03-23T15:44:09Z</time></trkpt><trkpt lat="44.425047833261" lon="6.736469209986344"><ele>1234.7142857142858</ele><time>2026-03-23T15:44:10Z</time></trkpt><trkpt lat="44.42497680170609" lon="6.736501583166042"><ele>1233.0</ele><time>2026-03-23T15:44:11Z</time></trkpt><trkpt lat="44.42490569484895" lon="6.736532756470643"><ele>1233.0</ele><time>2026-03-23T15:44:12Z</time></trkpt><trkpt lat="44.424813508900094" lon="6.736577789657625"><ele>1233.0</ele><time>2026-03-23T15:44:13Z</time></trkpt><trkpt lat="44.42472862750213" lon="6.736619738264539"><ele>1233.0</ele><time>2026-03-23T15:44:14Z</time></trkpt><trkpt lat="44.42464485135911" lon="6.7366635807163515"><ele>1233.0</ele><time>2026-03-23T15:44:15Z</time></trkpt><trkpt lat="44.42456026622608" lon="6.736696118316803"><ele>1233.0</ele><time>2026-03-23T15:44:16Z</time></trkpt><trkpt lat="44.424473280980294" lon="6.736719173083415"><ele>1232.5</ele><time>2026-03-23T15:44:17Z</time></trkpt><trkpt lat="44.424409666808685" lon="6.736737664353257"><ele>1232.0</ele><time>2026-03-23T15:44:18Z</time></trkpt><trkpt lat="44.42434633043813" lon="6.736781158432898"><ele>1231.5</ele><time>2026-03-23T15:44:19Z</time></trkpt><trkpt lat="44.42430042918151" lon="6.736846053421031"><ele>1231.0</ele><time>2026-03-23T15:44:20Z</time></trkpt><trkpt lat="44.42424864369221" lon="6.736978888117454"><ele>1230.5</ele><time>2026-03-23T15:44:22Z</time></trkpt><trkpt lat="44.4242073974138" lon="6.737063744772016"><ele>1230.0</ele><time>2026-03-23T15:44:25Z</time></trkpt><trkpt lat="44.42416286153049" lon="6.7371369472260385"><ele>1229.857142857143</ele><time>2026-03-23T15:44:27Z</time></trkpt><trkpt lat="44.42415240961914" lon="6.7372537412110445"><ele>1229.7142857142858</ele><time>2026-03-23T15:44:29Z</time></trkpt><trkpt lat="44.424151754316654" lon="6.73734222340394"><ele>1229.5714285714287</ele><time>2026-03-23T15:44:30Z</time></trkpt><trkpt lat="44.42414481085678" lon="6.737436629704743"><ele>1229.4285714285716</ele><time>2026-03-23T15:44:31Z</time></trkpt><trkpt lat="44.42410877912127" lon="6.737530665523481"><ele>1229.2857142857142</ele><time>2026-03-23T15:44:32Z</time></trkpt><trkpt lat="44.42410114357114" lon="6.737618489638868"><ele>1229.1428571428573</ele><time>2026-03-23T15:44:33Z</time></trkpt><trkpt lat="44.424091551206104" lon="6.737712380378869"><ele>1229.0</ele><time>2026-03-23T15:44:34Z</time></trkpt><trkpt lat="44.424049931823504" lon="6.737798237053822"><ele>1228.6666666666667</ele><time>2026-03-23T15:44:35Z</time></trkpt><trkpt lat="44.42405517644981" lon="6.737888783097529"><ele>1228.3333333333335</ele><time>2026-03-23T15:44:36Z</time></trkpt><trkpt lat="44.42404438126965" lon="6.737984734543059"><ele>1228.0</ele><time>2026-03-23T15:44:37Z</time></trkpt><trkpt lat="44.424033457535174" lon="6.73808182853273"><ele>1227.6666666666667</ele><time>2026-03-23T15:44:38Z</time></trkpt><trkpt lat="44.42402346154069" lon="6.738170677183005"><ele>1227.3333333333333</ele><time>2026-03-23T15:44:39Z</time></trkpt><trkpt lat="44.42401163157546" lon="6.738337402685788"><ele>1227.0</ele><time>2026-03-23T15:44:41Z</time></trkpt><trkpt lat="44.42400332831186" lon="6.738496888135241"><ele>1226.25</ele><time>2026-03-23T15:44:43Z</time></trkpt><trkpt lat="44.42399690461828" lon="6.738620274368073"><ele>1225.5</ele><time>2026-03-23T15:44:45Z</time></trkpt><trkpt lat="44.42377930855023" lon="6.738666230953217"><ele>1224.75</ele><time>2026-03-23T15:44:48Z</time></trkpt><trkpt lat="44.4236737605659" lon="6.7386556926877885"><ele>1224.0</ele><time>2026-03-23T15:44:50Z</time></trkpt><trkpt lat="44.423564628173814" lon="6.738656129815575"><ele>1223.8</ele><time>2026-03-23T15:44:52Z</time></trkpt><trkpt lat="44.42345455506005" lon="6.7386538168676395"><ele>1223.6000000000001</ele><time>2026-03-23T15:44:54Z</time></trkpt><trkpt lat="44.42334407218617" lon="6.738651963865936"><ele>1223.4</ele><time>2026-03-23T15:44:56Z</time></trkpt><trkpt lat="44.42322836894333" lon="6.738656083116958"><ele>1223.2</ele><time>2026-03-23T15:44:58Z</time></trkpt><trkpt lat="44.42311552566309" lon="6.738655199374138"><ele>1223.0</ele><time>2026-03-23T15:45:00Z</time></trkpt><trkpt lat="44.422994219719115" lon="6.738654578819781"><ele>1222.6</ele><time>2026-03-23T15:45:02Z</time></trkpt><trkpt lat="44.422871349276825" lon="6.738657777463871"><ele>1222.1999999999998</ele><time>2026-03-23T15:45:04Z</time></trkpt><trkpt lat="44.422751590004374" lon="6.738661241321997"><ele>1221.8</ele><time>2026-03-23T15:45:06Z</time></trkpt><trkpt lat="44.42268704722706" lon="6.738662888578078"><ele>1221.3999999999999</ele><time>2026-03-23T15:45:07Z</time></trkpt><trkpt lat="44.42256787016443" lon="6.7386642084032"><ele>1221.0</ele><time>2026-03-23T15:45:09Z</time></trkpt><trkpt lat="44.422452344190596" lon="6.738666071749794"><ele>1221.0</ele><time>2026-03-23T15:45:11Z</time></trkpt><trkpt lat="44.42237899657298" lon="6.738942564072323"><ele>1221.0</ele><time>2026-03-23T15:45:12Z</time></trkpt><trkpt lat="44.42226261669607" lon="6.73893250743418"><ele>1221.0</ele><time>2026-03-23T15:45:14Z</time></trkpt><trkpt lat="44.422147241849345" lon="6.738923481970696"><ele>1221.0</ele><time>2026-03-23T15:45:16Z</time></trkpt><trkpt lat="44.42203090205179" lon="6.738917997276237"><ele>1221.0</ele><time>2026-03-23T15:45:18Z</time></trkpt><trkpt lat="44.42191639707974" lon="6.7389137164162936"><ele>1221.0</ele><time>2026-03-23T15:45:20Z</time></trkpt><trkpt lat="44.42179742035127" lon="6.73890926838069"><ele>1221.0</ele><time>2026-03-23T15:45:22Z</time></trkpt><trkpt lat="44.42167716293951" lon="6.7389040522297785"><ele>1221.0</ele><time>2026-03-23T15:45:24Z</time></trkpt><trkpt lat="44.42154721359369" lon="6.738895343339227"><ele>1221.0</ele><time>2026-03-23T15:45:26Z</time></trkpt><trkpt lat="44.421429793883476" lon="6.7388846501763995"><ele>1221.0</ele><time>2026-03-23T15:45:28Z</time></trkpt><trkpt lat="44.42131168006883" lon="6.738873868887763"><ele>1221.0</ele><time>2026-03-23T15:45:30Z</time></trkpt><trkpt lat="44.42119614224771" lon="6.7388646957327225"><ele>1221.0</ele><time>2026-03-23T15:45:32Z</time></trkpt><trkpt lat="44.421090091905455" lon="6.73885762024395"><ele>1221.25</ele><time>2026-03-23T15:45:34Z</time></trkpt><trkpt lat="44.42098551644451" lon="6.738852839989866"><ele>1221.5</ele><time>2026-03-23T15:45:36Z</time></trkpt><trkpt lat="44.42089711083265" lon="6.73855447307251"><ele>1221.75</ele><time>2026-03-23T15:45:38Z</time></trkpt><trkpt lat="44.42081442720187" lon="6.738541968951331"><ele>1222.0</ele><time>2026-03-23T15:45:40Z</time></trkpt><trkpt lat="44.420743749815735" lon="6.738530787404622"><ele>1222.0</ele><time>2026-03-23T15:45:42Z</time></trkpt><trkpt lat="44.42066534638231" lon="6.738517191476687"><ele>1222.0</ele><time>2026-03-23T15:45:45Z</time></trkpt><trkpt lat="44.42060163610569" lon="6.738513671466856"><ele>1222.0</ele><time>2026-03-23T15:45:48Z</time></trkpt><trkpt lat="44.42053105848656" lon="6.738492848968494"><ele>1222.0</ele><time>2026-03-23T15:45:52Z</time></trkpt><trkpt lat="44.420456113570125" lon="6.738501772784886"><ele>1222.0</ele><time>2026-03-23T15:45:57Z</time></trkpt><trkpt lat="44.42036980776384" lon="6.7384917969699965"><ele>1222.0</ele><time>2026-03-23T15:46:01Z</time></trkpt><trkpt lat="44.42029170309966" lon="6.73847160877459"><ele>1222.0</ele><time>2026-03-23T15:46:03Z</time></trkpt><trkpt lat="44.42021813784107" lon="6.738451536649721"><ele>1222.0</ele><time>2026-03-23T15:46:05Z</time></trkpt><trkpt lat="44.42014728949801" lon="6.738420340998464"><ele>1222.0</ele><time>2026-03-23T15:46:08Z</time></trkpt><trkpt lat="44.42011937569108" lon="6.738561835558256"><ele>1222.0</ele><time>2026-03-23T15:46:11Z</time></trkpt><trkpt lat="44.42010966002514" lon="6.7386759114864505"><ele>1222.0</ele><time>2026-03-23T15:46:13Z</time></trkpt><trkpt lat="44.42014597014782" lon="6.738766200889955"><ele>1222.0</ele><time>2026-03-23T15:46:17Z</time></trkpt><trkpt lat="44.42019659383914" lon="6.738840889686151"><ele>1222.0</ele><time>2026-03-23T15:46:19Z</time></trkpt><trkpt lat="44.42021326167025" lon="6.738929395476523"><ele>1222.0</ele><time>2026-03-23T15:46:22Z</time></trkpt><trkpt lat="44.42019248436693" lon="6.739111106801166"><ele>1222.0</ele><time>2026-03-23T15:46:23Z</time></trkpt><trkpt lat="44.4201284280631" lon="6.739249728984714"><ele>1222.0</ele><time>2026-03-23T15:46:25Z</time></trkpt><trkpt lat="44.420057292107536" lon="6.739369845175396"><ele>1222.0</ele><time>2026-03-23T15:46:27Z</time></trkpt><trkpt lat="44.41998603566731" lon="6.739488140369247"><ele>1222.4</ele><time>2026-03-23T15:46:29Z</time></trkpt><trkpt lat="44.41991962719178" lon="6.739611913123369"><ele>1222.8000000000002</ele><time>2026-03-23T15:46:31Z</time></trkpt><trkpt lat="44.41990467104418" lon="6.739758241369536"><ele>1223.2</ele><time>2026-03-23T15:46:33Z</time></trkpt><trkpt lat="44.419875244609074" lon="6.73989434982772"><ele>1223.6000000000001</ele><time>2026-03-23T15:46:35Z</time></trkpt><trkpt lat="44.41981285027948" lon="6.739926325862361"><ele>1224.0</ele><time>2026-03-23T15:46:37Z</time></trkpt><trkpt lat="44.41975337864769" lon="6.739971330210177"><ele>1224.0</ele><time>2026-03-23T15:46:40Z</time></trkpt><trkpt lat="44.41981478180589" lon="6.740052699436103"><ele>1224.0</ele><time>2026-03-23T15:46:45Z</time></trkpt><trkpt lat="44.41986888606046" lon="6.740168909798715"><ele>1224.0</ele><time>2026-03-23T15:46:48Z</time></trkpt><trkpt lat="44.41982718071111" lon="6.740270978043443"><ele>1224.0</ele><time>2026-03-23T15:46:50Z</time></trkpt><trkpt lat="44.419790124856256" lon="6.740380296405941"><ele>1224.0</ele><time>2026-03-23T15:46:52Z</time></trkpt><trkpt lat="44.419772942861805" lon="6.740511998125976"><ele>1223.6000000000001</ele><time>2026-03-23T15:46:54Z</time></trkpt><trkpt lat="44.419777754563306" lon="6.740662630099707"><ele>1223.2</ele><time>2026-03-23T15:46:56Z</time></trkpt><trkpt lat="44.41980084305572" lon="6.740783696602853"><ele>1222.8000000000002</ele><time>2026-03-23T15:46:58Z</time></trkpt><trkpt lat="44.41985198726592" lon="6.740908700922226"><ele>1222.4</ele><time>2026-03-23T15:47:00Z</time></trkpt><trkpt lat="44.41991660157201" lon="6.741004187989715"><ele>1222.0</ele><time>2026-03-23T15:47:02Z</time></trkpt><trkpt lat="44.41999255334786" lon="6.741077722016495"><ele>1224.6</ele><time>2026-03-23T15:47:04Z</time></trkpt><trkpt lat="44.42007449103698" lon="6.741153168213992"><ele>1227.2</ele><time>2026-03-23T15:47:06Z</time></trkpt><trkpt lat="44.420156757610826" lon="6.741208069585393"><ele>1229.8</ele><time>2026-03-23T15:47:08Z</time></trkpt><trkpt lat="44.420241142357106" lon="6.74125465471898"><ele>1232.4</ele><time>2026-03-23T15:47:10Z</time></trkpt><trkpt lat="44.42032826591066" lon="6.741301821927631"><ele>1235.0</ele><time>2026-03-23T15:47:12Z</time></trkpt><trkpt lat="44.42041524701316" lon="6.741346748941934"><ele>1233.8</ele><time>2026-03-23T15:47:14Z</time></trkpt><trkpt lat="44.42050948898132" lon="6.741369333479531"><ele>1232.6</ele><time>2026-03-23T15:47:16Z</time></trkpt><trkpt lat="44.420605425529864" lon="6.741391406151489"><ele>1231.4</ele><time>2026-03-23T15:47:18Z</time></trkpt><trkpt lat="44.42070563341576" lon="6.741394502867676"><ele>1230.2</ele><time>2026-03-23T15:47:20Z</time></trkpt><trkpt lat="44.42080379540898" lon="6.74139624877955"><ele>1229.0</ele><time>2026-03-23T15:47:22Z</time></trkpt><trkpt lat="44.42089926497618" lon="6.741393625085333"><ele>1229.0000000000002</ele><time>2026-03-23T15:47:24Z</time></trkpt><trkpt lat="44.42096241052814" lon="6.7414032814185765"><ele>1229.0</ele><time>2026-03-23T15:47:26Z</time></trkpt><trkpt lat="44.42099092711915" lon="6.741489444979936"><ele>1229.0</ele><time>2026-03-23T15:47:28Z</time></trkpt><trkpt lat="44.421019177641526" lon="6.741568694030076"><ele>1229.0</ele><time>2026-03-23T15:47:31Z</time></trkpt><trkpt lat="44.42108112221901" lon="6.741601742002324"><ele>1229.0</ele><time>2026-03-23T15:47:33Z</time></trkpt><trkpt lat="44.42114287332978" lon="6.74162279408393"><ele>1229.0000000000002</ele><time>2026-03-23T15:47:35Z</time></trkpt><trkpt lat="44.42121401986855" lon="6.741634854328202"><ele>1229.0</ele><time>2026-03-23T15:47:37Z</time></trkpt><trkpt lat="44.42130127618925" lon="6.741648601480435"><ele>1229.1428571428573</ele><time>2026-03-23T15:47:40Z</time></trkpt><trkpt lat="44.42136618091473" lon="6.741654379876667"><ele>1229.2857142857142</ele><time>2026-03-23T15:47:43Z</time></trkpt><trkpt lat="44.42143115094849" lon="6.741654959189946"><ele>1229.4285714285716</ele><time>2026-03-23T15:47:45Z</time></trkpt><trkpt lat="44.42150081891017" lon="6.741647365669575"><ele>1229.5714285714287</ele><time>2026-03-23T15:47:49Z</time></trkpt><trkpt lat="44.42159534242038" lon="6.741648672816125"><ele>1229.7142857142858</ele><time>2026-03-23T15:47:52Z</time></trkpt><trkpt lat="44.42165824677195" lon="6.741631067492846"><ele>1229.857142857143</ele><time>2026-03-23T15:47:54Z</time></trkpt><trkpt lat="44.42172348875471" lon="6.741613884354636"><ele>1230.0</ele><time>2026-03-23T15:47:56Z</time></trkpt><trkpt lat="44.42182537723386" lon="6.741574183301089"><ele>1230.0</ele><time>2026-03-23T15:47:58Z</time></trkpt><trkpt lat="44.42191549778352" lon="6.74153752322969"><ele>1230.0</ele><time>2026-03-23T15:48:01Z</time></trkpt><trkpt lat="44.42197919890666" lon="6.7415097570100535"><ele>1230.0</ele><time>2026-03-23T15:48:03Z</time></trkpt><trkpt lat="44.422042004183325" lon="6.741447598135808"><ele>1230.0</ele><time>2026-03-23T15:48:06Z</time></trkpt><trkpt lat="44.42212307154965" lon="6.741375506298464"><ele>1230.0</ele><time>2026-03-23T15:48:09Z</time></trkpt><trkpt lat="44.422208073047855" lon="6.741308353023193"><ele>1230.0</ele><time>2026-03-23T15:48:12Z</time></trkpt><trkpt lat="44.42228638158315" lon="6.741255900153378"><ele>1228.6666666666667</ele><time>2026-03-23T15:48:15Z</time></trkpt><trkpt lat="44.42236639953034" lon="6.741217362859705"><ele>1227.3333333333333</ele><time>2026-03-23T15:48:18Z</time></trkpt><trkpt lat="44.42242113954331" lon="6.741154199928487"><ele>1226.0</ele><time>2026-03-23T15:48:21Z</time></trkpt><trkpt lat="44.42247749608528" lon="6.741098049214643"><ele>1224.6666666666665</ele><time>2026-03-23T15:48:23Z</time></trkpt><trkpt lat="44.422533448653326" lon="6.74102451579172"><ele>1223.3333333333333</ele><time>2026-03-23T15:48:25Z</time></trkpt><trkpt lat="44.42259005053771" lon="6.740971695283227"><ele>1222.0</ele><time>2026-03-23T15:48:27Z</time></trkpt><trkpt lat="44.422666814219916" lon="6.740915972350916"><ele>1222.0</ele><time>2026-03-23T15:48:30Z</time></trkpt><trkpt lat="44.42273705315417" lon="6.740862736277737"><ele>1222.0</ele><time>2026-03-23T15:48:33Z</time></trkpt><trkpt lat="44.42279830109831" lon="6.740830950793705"><ele>1222.0</ele><time>2026-03-23T15:48:35Z</time></trkpt><trkpt lat="44.42287098319877" lon="6.740782663872525"><ele>1222.0</ele><time>2026-03-23T15:48:38Z</time></trkpt><trkpt lat="44.42294603367088" lon="6.740737997670268"><ele>1222.0</ele><time>2026-03-23T15:48:40Z</time></trkpt><trkpt lat="44.4230104113453" lon="6.740722848235308"><ele>1222.0</ele><time>2026-03-23T15:48:42Z</time></trkpt><trkpt lat="44.423083791032944" lon="6.740689648473909"><ele>1224.8</ele><time>2026-03-23T15:48:44Z</time></trkpt><trkpt lat="44.42319157974738" lon="6.74065600024289"><ele>1227.6</ele><time>2026-03-23T15:48:46Z</time></trkpt><trkpt lat="44.423281614531156" lon="6.740590518232245"><ele>1230.3999999999999</ele><time>2026-03-23T15:48:48Z</time></trkpt><trkpt lat="44.423356141915704" lon="6.740472296622785"><ele>1233.2</ele><time>2026-03-23T15:48:51Z</time></trkpt><trkpt lat="44.4234050024989" lon="6.740344590369677"><ele>1236.0</ele><time>2026-03-23T15:48:53Z</time></trkpt><trkpt lat="44.423404186116194" lon="6.740217535286642"><ele>1234.4285714285716</ele><time>2026-03-23T15:48:55Z</time></trkpt><trkpt lat="44.42340187175418" lon="6.740119489298603"><ele>1232.857142857143</ele><time>2026-03-23T15:48:57Z</time></trkpt><trkpt lat="44.42335818571362" lon="6.7400214712275694"><ele>1231.2857142857142</ele><time>2026-03-23T15:49:00Z</time></trkpt><trkpt lat="44.42329170800397" lon="6.740019372991442"><ele>1229.7142857142858</ele><time>2026-03-23T15:49:02Z</time></trkpt><trkpt lat="44.42319796202794" lon="6.740026475097627"><ele>1228.142857142857</ele><time>2026-03-23T15:49:05Z</time></trkpt><trkpt lat="44.42313233305574" lon="6.740009830164005"><ele>1226.5714285714287</ele><time>2026-03-23T15:49:07Z</time></trkpt><trkpt lat="44.423067769012434" lon="6.739975889234272"><ele>1225.0</ele><time>2026-03-23T15:49:09Z</time></trkpt><trkpt lat="44.42298454148414" lon="6.739958792678792"><ele>1224.6666666666665</ele><time>2026-03-23T15:49:12Z</time></trkpt><trkpt lat="44.4229167747603" lon="6.739943365616686"><ele>1224.3333333333333</ele><time>2026-03-23T15:49:15Z</time></trkpt><trkpt lat="44.422850687728754" lon="6.739929562600352"><ele>1224.0</ele><time>2026-03-23T15:49:18Z</time></trkpt><trkpt lat="44.4227526187387" lon="6.7399164684974275"><ele>1223.6666666666667</ele><time>2026-03-23T15:49:21Z</time></trkpt><trkpt lat="44.42266881740996" lon="6.739926342487562"><ele>1223.3333333333335</ele><time>2026-03-23T15:49:24Z</time></trkpt><trkpt lat="44.422620084465095" lon="6.739856698386042"><ele>1223.0</ele><time>2026-03-23T15:49:28Z</time></trkpt><trkpt lat="44.42267049334826" lon="6.739799986486157"><ele>1223.0</ele><time>2026-03-23T15:49:30Z</time></trkpt><trkpt lat="44.422733252379324" lon="6.739742410068052"><ele>1223.0</ele><time>2026-03-23T15:49:33Z</time></trkpt><trkpt lat="44.42280196316552" lon="6.739665987935781"><ele>1223.0</ele><time>2026-03-23T15:49:36Z</time></trkpt><trkpt lat="44.42287637849401" lon="6.7395992259499655"><ele>1223.0</ele><time>2026-03-23T15:49:38Z</time></trkpt><trkpt lat="44.42296154390029" lon="6.739515158659748"><ele>1223.0</ele><time>2026-03-23T15:49:41Z</time></trkpt><trkpt lat="44.42303602455974" lon="6.7394508464157115"><ele>1223.0</ele><time>2026-03-23T15:49:44Z</time></trkpt><trkpt lat="44.423100411758654" lon="6.73938975209147"><ele>1223.0</ele><time>2026-03-23T15:49:46Z</time></trkpt><trkpt lat="44.423166694252934" lon="6.7393274809528805"><ele>1223.0</ele><time>2026-03-23T15:49:48Z</time></trkpt><trkpt lat="44.42322304334319" lon="6.739257696933148"><ele>1223.0</ele><time>2026-03-23T15:49:50Z</time></trkpt><trkpt lat="44.42319992977767" lon="6.739160322588761"><ele>1223.0</ele><time>2026-03-23T15:49:52Z</time></trkpt><trkpt lat="44.423136998246356" lon="6.739097692742353"><ele>1223.0</ele><time>2026-03-23T15:49:55Z</time></trkpt><trkpt lat="44.423033176643784" lon="6.739043505999214"><ele>1223.0</ele><time>2026-03-23T15:49:58Z</time></trkpt><trkpt lat="44.42296774887102" lon="6.739035692598674"><ele>1222.7142857142856</ele><time>2026-03-23T15:50:00Z</time></trkpt><trkpt lat="44.42290433430775" lon="6.739030178149017"><ele>1222.4285714285716</ele><time>2026-03-23T15:50:02Z</time></trkpt><trkpt lat="44.42282196640091" lon="6.739016160117129"><ele>1222.142857142857</ele><time>2026-03-23T15:50:04Z</time></trkpt><trkpt lat="44.42275356936338" lon="6.739005997256012"><ele>1221.8571428571427</ele><time>2026-03-23T15:50:06Z</time></trkpt><trkpt lat="44.42268908092412" lon="6.739002870354393"><ele>1221.5714285714284</ele><time>2026-03-23T15:50:08Z</time></trkpt><trkpt lat="44.42261780424611" lon="6.738987810371015"><ele>1221.2857142857142</ele><time>2026-03-23T15:50:10Z</time></trkpt><trkpt lat="44.42254420642448" lon="6.738991291157138"><ele>1221.0</ele><time>2026-03-23T15:50:12Z</time></trkpt><trkpt lat="44.422473301985775" lon="6.7389859703076365"><ele>1221.0</ele><time>2026-03-23T15:50:14Z</time></trkpt><trkpt lat="44.422404494629276" lon="6.738974538949601"><ele>1221.0</ele><time>2026-03-23T15:50:16Z</time></trkpt><trkpt lat="44.42232287945666" lon="6.738970923737875"><ele>1221.0</ele><time>2026-03-23T15:50:18Z</time></trkpt><trkpt lat="44.4222393853144" lon="6.738969051136955"><ele>1221.0</ele><time>2026-03-23T15:50:20Z</time></trkpt><trkpt lat="44.4221602389631" lon="6.738959844511437"><ele>1221.0</ele><time>2026-03-23T15:50:22Z</time></trkpt><trkpt lat="44.42207603299667" lon="6.738955581652761"><ele>1221.0</ele><time>2026-03-23T15:50:24Z</time></trkpt><trkpt lat="44.42199274275611" lon="6.738952160668391"><ele>1221.0</ele><time>2026-03-23T15:50:26Z</time></trkpt><trkpt lat="44.421911106086554" lon="6.73894782773949"><ele>1221.0</ele><time>2026-03-23T15:50:28Z</time></trkpt><trkpt lat="44.421835979245124" lon="6.7389492839672736"><ele>1221.0</ele><time>2026-03-23T15:50:30Z</time></trkpt><trkpt lat="44.421765840730124" lon="6.738958425579271"><ele>1221.0</ele><time>2026-03-23T15:50:32Z</time></trkpt><trkpt lat="44.42168015529706" lon="6.738953038315857"><ele>1221.0</ele><time>2026-03-23T15:50:34Z</time></trkpt><trkpt lat="44.42159937703825" lon="6.738941432673289"><ele>1221.0</ele><time>2026-03-23T15:50:36Z</time></trkpt><trkpt lat="44.421519553371795" lon="6.7389400635565835"><ele>1221.0</ele><time>2026-03-23T15:50:38Z</time></trkpt><trkpt lat="44.4214409919712" lon="6.73893438831965"><ele>1221.0</ele><time>2026-03-23T15:50:40Z</time></trkpt><trkpt lat="44.42136251903116" lon="6.7389294616699615"><ele>1221.0</ele><time>2026-03-23T15:50:42Z</time></trkpt><trkpt lat="44.42129180089917" lon="6.73892521416672"><ele>1221.0</ele><time>2026-03-23T15:50:44Z</time></trkpt><trkpt lat="44.42120069556583" lon="6.738919536551511"><ele>1221.0</ele><time>2026-03-23T15:50:46Z</time></trkpt><trkpt lat="44.42112835079836" lon="6.738908167944021"><ele>1221.0</ele><time>2026-03-23T15:50:48Z</time></trkpt><trkpt lat="44.42104794270477" lon="6.738910622516284"><ele>1221.3333333333333</ele><time>2026-03-23T15:50:49.999Z</time></trkpt><trkpt lat="44.42096742373179" lon="6.738903612965342"><ele>1221.6666666666667</ele><time>2026-03-23T15:50:51.999Z</time></trkpt><trkpt lat="44.42088476983529" lon="6.7389045881142655"><ele>1222.0</ele><time>2026-03-23T15:50:53.999Z</time></trkpt><trkpt lat="44.420798722897345" lon="6.7388993484591815"><ele>1222.3333333333335</ele><time>2026-03-23T15:50:55.999Z</time></trkpt><trkpt lat="44.420716675152114" lon="6.738894753571242"><ele>1222.6666666666667</ele><time>2026-03-23T15:50:57.999Z</time></trkpt><trkpt lat="44.42063794403357" lon="6.738885522450639"><ele>1223.0</ele><time>2026-03-23T15:50:59.999Z</time></trkpt><trkpt lat="44.42056027176328" lon="6.738878765855473"><ele>1222.8333333333335</ele><time>2026-03-23T15:51:01.999Z</time></trkpt><trkpt lat="44.42048056868851" lon="6.738880755956499"><ele>1222.6666666666667</ele><time>2026-03-23T15:51:03.999Z</time></trkpt><trkpt lat="44.420398096649194" lon="6.7388851299013"><ele>1222.5</ele><time>2026-03-23T15:51:05.999Z</time></trkpt><trkpt lat="44.42032336287241" lon="6.738875632401618"><ele>1222.3333333333333</ele><time>2026-03-23T15:51:07.999Z</time></trkpt><trkpt lat="44.420248418799396" lon="6.738843623798982"><ele>1222.1666666666665</ele><time>2026-03-23T15:51:09.999Z</time></trkpt><trkpt lat="44.420169485255855" lon="6.738788034576058"><ele>1222.0</ele><time>2026-03-23T15:51:12Z</time></trkpt><trkpt lat="44.42011322840272" lon="6.738747604833888"><ele>1222.0</ele><time>2026-03-23T15:51:14Z</time></trkpt><trkpt lat="44.420101301222104" lon="6.7386377578587755"><ele>1222.0</ele><time>2026-03-23T15:51:18Z</time></trkpt><trkpt lat="44.42011839604022" lon="6.738540689532013"><ele>1222.0</ele><time>2026-03-23T15:51:20Z</time></trkpt><trkpt lat="44.42012187735303" lon="6.7384386598198684"><ele>1222.0</ele><time>2026-03-23T15:51:22Z</time></trkpt><trkpt lat="44.42006879473864" lon="6.73834229432718"><ele>1222.0</ele><time>2026-03-23T15:51:24Z</time></trkpt><trkpt lat="44.41999483645313" lon="6.73826092059735"><ele>1222.0</ele><time>2026-03-23T15:51:26Z</time></trkpt><trkpt lat="44.419925991557825" lon="6.7381341146429214"><ele>1221.4</ele><time>2026-03-23T15:51:28Z</time></trkpt><trkpt lat="44.419844283899124" lon="6.7379996663165524"><ele>1220.8000000000002</ele><time>2026-03-23T15:51:30Z</time></trkpt><trkpt lat="44.41981724426068" lon="6.7378992708383345"><ele>1220.2</ele><time>2026-03-23T15:51:31Z</time></trkpt><trkpt lat="44.41971764170094" lon="6.737794868105926"><ele>1219.6000000000001</ele><time>2026-03-23T15:51:33Z</time></trkpt><trkpt lat="44.4196209517972" lon="6.737704914962551"><ele>1219.0</ele><time>2026-03-23T15:51:35Z</time></trkpt><trkpt lat="44.4195336401005" lon="6.737625611667302"><ele>1219.0</ele><time>2026-03-23T15:51:37Z</time></trkpt><trkpt lat="44.419446289478564" lon="6.737544075633948"><ele>1219.0</ele><time>2026-03-23T15:51:39Z</time></trkpt><trkpt lat="44.419357275382204" lon="6.737483347255368"><ele>1219.0</ele><time>2026-03-23T15:51:41Z</time></trkpt><trkpt lat="44.41930594815519" lon="6.737410196164724"><ele>1219.0</ele><time>2026-03-23T15:51:43Z</time></trkpt><trkpt lat="44.4193101671608" lon="6.737502892570831"><ele>1219.0</ele><time>2026-03-23T16:00:52Z</time></trkpt></trkseg></trk></gpx>